<?xml version='1.0' encoding='UTF-8'?><gpx version="1.1" creator="JPX - https://github.com/jenetics/jpx" xmlns="http://www.topografix.com/GPX/1/1"><trk><trkseg><trkpt lat="42.0272133" lon="13.6631311"><ele>758.0000000000001</ele><time>2026-04-19T08:45:23.631Z</time></trkpt><trkpt lat="42.0271744" lon="13.6630504"><ele>758.0</ele><time>2026-04-19T08:46:35.629Z</time></trkpt><trkpt lat="42.0272472" lon="13.6630663"><ele>758.0</ele><time>2026-04-19T08:46:46.631Z</time></trkpt><trkpt lat="42.0272416" lon="13.6631594"><ele>758.0</ele><time>2026-04-19T08:47:58.627Z</time></trkpt><trkpt lat="42.0272751" lon="13.663238"><ele>758.0</ele><time>2026-04-19T08:48:04.637Z</time></trkpt><trkpt lat="42.0273001" lon="13.6633205"><ele>758.0000000000001</ele><time>2026-04-19T08:48:10.672Z</time></trkpt><trkpt lat="42.0273494" lon="13.663378"><ele>758.0</ele><time>2026-04-19T08:48:16.63Z</time></trkpt><trkpt lat="42.0273964" lon="13.6634344"><ele>758.0000000000001</ele><time>2026-04-19T08:48:22.642Z</time></trkpt><trkpt lat="42.027414" lon="13.6635199"><ele>758.0</ele><time>2026-04-19T08:48:29.629Z</time></trkpt><trkpt lat="42.0274396" lon="13.663604"><ele>758.0</ele><time>2026-04-19T08:48:38.613Z</time></trkpt><trkpt lat="42.0274726" lon="13.6636921"><ele>758.0</ele><time>2026-04-19T08:48:45.675Z</time></trkpt><trkpt lat="42.0275072" lon="13.6637771"><ele>758.0</ele><time>2026-04-19T08:48:54.632Z</time></trkpt><trkpt lat="42.0275542" lon="13.6638402"><ele>758.0000000000001</ele><time>2026-04-19T08:49:01.536Z</time></trkpt><trkpt lat="42.027592" lon="13.6639124"><ele>758.0</ele><time>2026-04-19T08:49:11.658Z</time></trkpt><trkpt lat="42.0276444" lon="13.6639684"><ele>757.0000000000001</ele><time>2026-04-19T08:49:17.627Z</time></trkpt><trkpt lat="42.0277056" lon="13.6640223"><ele>756.0</ele><time>2026-04-19T08:49:24.628Z</time></trkpt><trkpt lat="42.0277525" lon="13.6640959"><ele>755.0</ele><time>2026-04-19T08:49:32.656Z</time></trkpt><trkpt lat="42.0277303" lon="13.6641769"><ele>754.0</ele><time>2026-04-19T08:49:40.639Z</time></trkpt><trkpt lat="42.0276668" lon="13.6642327"><ele>753.0</ele><time>2026-04-19T08:50:02.633Z</time></trkpt><trkpt lat="42.0276181" lon="13.6642917"><ele>752.0000000000001</ele><time>2026-04-19T08:50:08.669Z</time></trkpt><trkpt lat="42.0275569" lon="13.6643263"><ele>751.0</ele><time>2026-04-19T08:50:15.632Z</time></trkpt><trkpt lat="42.027503" lon="13.6643733"><ele>752.5714285714287</ele><time>2026-04-19T08:50:22.652Z</time></trkpt><trkpt lat="42.0274929" lon="13.6644579"><ele>754.1428571428571</ele><time>2026-04-19T08:50:43.629Z</time></trkpt><trkpt lat="42.0275298" lon="13.6645478"><ele>755.7142857142858</ele><time>2026-04-19T08:51:21.63Z</time></trkpt><trkpt lat="42.0275592" lon="13.6646317"><ele>757.2857142857143</ele><time>2026-04-19T08:51:48.632Z</time></trkpt><trkpt lat="42.0275439" lon="13.6647252"><ele>758.8571428571429</ele><time>2026-04-19T08:51:54.642Z</time></trkpt><trkpt lat="42.0275051" lon="13.6648045"><ele>760.4285714285714</ele><time>2026-04-19T08:52:01.685Z</time></trkpt><trkpt lat="42.0275013" lon="13.6648973"><ele>762.0</ele><time>2026-04-19T08:52:12.65Z</time></trkpt><trkpt lat="42.0274932" lon="13.6649905"><ele>764.7142857142857</ele><time>2026-04-19T08:52:22.682Z</time></trkpt><trkpt lat="42.0274676" lon="13.66507"><ele>767.4285714285714</ele><time>2026-04-19T08:52:32.669Z</time></trkpt><trkpt lat="42.0274628" lon="13.6649833"><ele>770.1428571428571</ele><time>2026-04-19T08:53:01.641Z</time></trkpt><trkpt lat="42.0274564" lon="13.6650791"><ele>772.8571428571429</ele><time>2026-04-19T08:53:40.627Z</time></trkpt><trkpt lat="42.0274223" lon="13.6651512"><ele>775.5714285714287</ele><time>2026-04-19T08:53:49.629Z</time></trkpt><trkpt lat="42.027376" lon="13.6652175"><ele>778.2857142857143</ele><time>2026-04-19T08:54:14.63Z</time></trkpt><trkpt lat="42.0273159" lon="13.6652438"><ele>781.0</ele><time>2026-04-19T08:54:20.594Z</time></trkpt><trkpt lat="42.0272637" lon="13.6652942"><ele>781.8571428571429</ele><time>2026-04-19T08:54:33.629Z</time></trkpt><trkpt lat="42.0272245" lon="13.6653666"><ele>782.7142857142858</ele><time>2026-04-19T08:54:43.646Z</time></trkpt><trkpt lat="42.027194" lon="13.6654548"><ele>783.5714285714286</ele><time>2026-04-19T08:55:15.634Z</time></trkpt><trkpt lat="42.0271277" lon="13.6654822"><ele>784.4285714285714</ele><time>2026-04-19T08:55:25.627Z</time></trkpt><trkpt lat="42.027066" lon="13.6655079"><ele>785.2857142857142</ele><time>2026-04-19T08:55:33.641Z</time></trkpt><trkpt lat="42.0270142" lon="13.6655603"><ele>786.1428571428571</ele><time>2026-04-19T08:55:44.637Z</time></trkpt><trkpt lat="42.0269519" lon="13.6656038"><ele>787.0</ele><time>2026-04-19T08:56:45.628Z</time></trkpt><trkpt lat="42.0270174" lon="13.6655968"><ele>787.0</ele><time>2026-04-19T08:57:03.628Z</time></trkpt><trkpt lat="42.0270817" lon="13.6656047"><ele>787.0</ele><time>2026-04-19T08:57:09.627Z</time></trkpt><trkpt lat="42.0271444" lon="13.6656319"><ele>787.0</ele><time>2026-04-19T08:57:14.642Z</time></trkpt><trkpt lat="42.0272137" lon="13.6656321"><ele>787.0</ele><time>2026-04-19T08:57:20.628Z</time></trkpt><trkpt lat="42.0272782" lon="13.6656203"><ele>787.0</ele><time>2026-04-19T08:57:26.626Z</time></trkpt><trkpt lat="42.0273427" lon="13.6656217"><ele>787.0</ele><time>2026-04-19T08:57:32.648Z</time></trkpt><trkpt lat="42.0272714" lon="13.6656093"><ele>787.0</ele><time>2026-04-19T08:57:43.678Z</time></trkpt><trkpt lat="42.0272" lon="13.6656009"><ele>787.0</ele><time>2026-04-19T08:57:48.643Z</time></trkpt><trkpt lat="42.0271321" lon="13.6656048"><ele>787.0</ele><time>2026-04-19T08:57:53.672Z</time></trkpt><trkpt lat="42.0270594" lon="13.6656196"><ele>787.0</ele><time>2026-04-19T08:57:59.591Z</time></trkpt><trkpt lat="42.0269944" lon="13.6656196"><ele>787.0</ele><time>2026-04-19T08:58:05.642Z</time></trkpt><trkpt lat="42.0269621" lon="13.6655389"><ele>787.0</ele><time>2026-04-19T08:58:12.628Z</time></trkpt><trkpt lat="42.0269132" lon="13.6655983"><ele>787.0</ele><time>2026-04-19T08:58:28.631Z</time></trkpt><trkpt lat="42.0268883" lon="13.665688"><ele>787.0</ele><time>2026-04-19T08:58:36.631Z</time></trkpt><trkpt lat="42.0268271" lon="13.6656317"><ele>787.0</ele><time>2026-04-19T08:58:42.699Z</time></trkpt><trkpt lat="42.0267579" lon="13.6656174"><ele>787.0</ele><time>2026-04-19T08:58:52.628Z</time></trkpt><trkpt lat="42.0266932" lon="13.6656427"><ele>787.0</ele><time>2026-04-19T08:59:00.669Z</time></trkpt><trkpt lat="42.0266626" lon="13.6657171"><ele>787.0</ele><time>2026-04-19T08:59:05.628Z</time></trkpt><trkpt lat="42.0266597" lon="13.6658135"><ele>787.0</ele><time>2026-04-19T08:59:12.639Z</time></trkpt><trkpt lat="42.0266282" lon="13.6658881"><ele>787.0</ele><time>2026-04-19T08:59:18.63Z</time></trkpt><trkpt lat="42.0266057" lon="13.6659684"><ele>787.0</ele><time>2026-04-19T08:59:27.63Z</time></trkpt><trkpt lat="42.026532" lon="13.6659978"><ele>788.4285714285714</ele><time>2026-04-19T08:59:41.637Z</time></trkpt><trkpt lat="42.0264821" lon="13.6660559"><ele>789.8571428571429</ele><time>2026-04-19T08:59:46.641Z</time></trkpt><trkpt lat="42.0264096" lon="13.6660591"><ele>791.2857142857142</ele><time>2026-04-19T08:59:53.632Z</time></trkpt><trkpt lat="42.026366" lon="13.6661223"><ele>792.7142857142858</ele><time>2026-04-19T09:00:03.642Z</time></trkpt><trkpt lat="42.026435" lon="13.666138"><ele>794.1428571428572</ele><time>2026-04-19T09:01:03.629Z</time></trkpt><trkpt lat="42.0265006" lon="13.6661329"><ele>795.5714285714286</ele><time>2026-04-19T09:01:09.647Z</time></trkpt><trkpt lat="42.0265678" lon="13.6661229"><ele>797.0</ele><time>2026-04-19T09:01:15.626Z</time></trkpt><trkpt lat="42.0266322" lon="13.6661124"><ele>795.5714285714286</ele><time>2026-04-19T09:01:21.63Z</time></trkpt><trkpt lat="42.026696" lon="13.6660913"><ele>794.1428571428572</ele><time>2026-04-19T09:01:27.654Z</time></trkpt><trkpt lat="42.0267712" lon="13.6660785"><ele>792.7142857142858</ele><time>2026-04-19T09:01:34.629Z</time></trkpt><trkpt lat="42.0268376" lon="13.6660798"><ele>791.2857142857142</ele><time>2026-04-19T09:01:40.63Z</time></trkpt><trkpt lat="42.0269051" lon="13.6660682"><ele>789.8571428571429</ele><time>2026-04-19T09:01:46.666Z</time></trkpt><trkpt lat="42.0269689" lon="13.6660621"><ele>788.4285714285714</ele><time>2026-04-19T09:01:53.628Z</time></trkpt><trkpt lat="42.0270335" lon="13.6660613"><ele>787.0</ele><time>2026-04-19T09:01:59.638Z</time></trkpt><trkpt lat="42.0270998" lon="13.666082"><ele>787.0</ele><time>2026-04-19T09:02:14.579Z</time></trkpt><trkpt lat="42.0271653" lon="13.6660904"><ele>787.0</ele><time>2026-04-19T09:02:19.663Z</time></trkpt><trkpt lat="42.0272346" lon="13.6660926"><ele>787.0</ele><time>2026-04-19T09:02:25.329Z</time></trkpt><trkpt lat="42.0272928" lon="13.666149"><ele>787.0</ele><time>2026-04-19T09:02:33.646Z</time></trkpt><trkpt lat="42.0273487" lon="13.6660919"><ele>787.0</ele><time>2026-04-19T09:02:49.64Z</time></trkpt><trkpt lat="42.0274135" lon="13.6661084"><ele>787.0</ele><time>2026-04-19T09:03:01.627Z</time></trkpt><trkpt lat="42.0274805" lon="13.6661265"><ele>787.0</ele><time>2026-04-19T09:03:07.648Z</time></trkpt><trkpt lat="42.0275481" lon="13.6661049"><ele>786.5714285714286</ele><time>2026-04-19T09:03:14.69Z</time></trkpt><trkpt lat="42.0276123" lon="13.6660915"><ele>786.1428571428571</ele><time>2026-04-19T09:03:21.63Z</time></trkpt><trkpt lat="42.0276807" lon="13.6661134"><ele>785.7142857142858</ele><time>2026-04-19T09:03:30.684Z</time></trkpt><trkpt lat="42.0277454" lon="13.666131"><ele>785.2857142857142</ele><time>2026-04-19T09:03:37.632Z</time></trkpt><trkpt lat="42.0278016" lon="13.6661803"><ele>784.8571428571429</ele><time>2026-04-19T09:03:46.579Z</time></trkpt><trkpt lat="42.0278409" lon="13.6661108"><ele>784.4285714285714</ele><time>2026-04-19T09:04:00.661Z</time></trkpt><trkpt lat="42.0279085" lon="13.6661272"><ele>784.0</ele><time>2026-04-19T09:04:06.583Z</time></trkpt><trkpt lat="42.0278599" lon="13.6661835"><ele>788.8571428571429</ele><time>2026-04-19T09:05:17.648Z</time></trkpt><trkpt lat="42.0278217" lon="13.6662578"><ele>793.7142857142858</ele><time>2026-04-19T09:05:36.628Z</time></trkpt><trkpt lat="42.0278592" lon="13.6661829"><ele>798.5714285714286</ele><time>2026-04-19T09:05:47.631Z</time></trkpt><trkpt lat="42.0279056" lon="13.6662438"><ele>803.4285714285714</ele><time>2026-04-19T09:06:07.654Z</time></trkpt><trkpt lat="42.0279553" lon="13.6663555"><ele>808.2857142857143</ele><time>2026-04-19T09:06:29.63Z</time></trkpt><trkpt lat="42.0280192" lon="13.6663891"><ele>813.1428571428571</ele><time>2026-04-19T09:06:35.655Z</time></trkpt><trkpt lat="42.028064" lon="13.6664623"><ele>818.0</ele><time>2026-04-19T09:06:49.63Z</time></trkpt><trkpt lat="42.0281312" lon="13.666507"><ele>818.0</ele><time>2026-04-19T09:06:56.629Z</time></trkpt><trkpt lat="42.0281928" lon="13.6664889"><ele>818.0</ele><time>2026-04-19T09:07:01.63Z</time></trkpt><trkpt lat="42.0282479" lon="13.6664394"><ele>818.0</ele><time>2026-04-19T09:07:07.628Z</time></trkpt><trkpt lat="42.0283064" lon="13.6664031"><ele>818.0</ele><time>2026-04-19T09:07:18.626Z</time></trkpt><trkpt lat="42.0283703" lon="13.6664135"><ele>818.0</ele><time>2026-04-19T09:07:31.631Z</time></trkpt><trkpt lat="42.0284171" lon="13.6664786"><ele>818.0</ele><time>2026-04-19T09:08:00.536Z</time></trkpt><trkpt lat="42.0284917" lon="13.6664908"><ele>818.0</ele><time>2026-04-19T09:08:07.629Z</time></trkpt><trkpt lat="42.0284299" lon="13.6664516"><ele>818.0</ele><time>2026-04-19T09:08:47.631Z</time></trkpt><trkpt lat="42.0283741" lon="13.6665027"><ele>818.0</ele><time>2026-04-19T09:08:58.638Z</time></trkpt><trkpt lat="42.0283096" lon="13.6665335"><ele>818.0</ele><time>2026-04-19T09:09:07.63Z</time></trkpt><trkpt lat="42.0282527" lon="13.6665707"><ele>818.0</ele><time>2026-04-19T09:09:16.649Z</time></trkpt><trkpt lat="42.0281968" lon="13.6666135"><ele>818.0</ele><time>2026-04-19T09:09:38.627Z</time></trkpt><trkpt lat="42.0281481" lon="13.6666703"><ele>818.0</ele><time>2026-04-19T09:10:16.632Z</time></trkpt><trkpt lat="42.0282202" lon="13.6666548"><ele>818.0</ele><time>2026-04-19T09:10:45.627Z</time></trkpt><trkpt lat="42.0282779" lon="13.6666065"><ele>818.0</ele><time>2026-04-19T09:10:58.622Z</time></trkpt><trkpt lat="42.0283409" lon="13.666593"><ele>818.0</ele><time>2026-04-19T09:11:08.646Z</time></trkpt><trkpt lat="42.0283453" lon="13.6666804"><ele>818.0</ele><time>2026-04-19T09:11:15.632Z</time></trkpt><trkpt lat="42.0282785" lon="13.6667382"><ele>818.0</ele><time>2026-04-19T09:11:43.658Z</time></trkpt><trkpt lat="42.0282141" lon="13.6667158"><ele>818.0</ele><time>2026-04-19T09:12:54.629Z</time></trkpt><trkpt lat="42.0282859" lon="13.666699"><ele>818.0</ele><time>2026-04-19T09:14:49.626Z</time></trkpt><trkpt lat="42.0282263" lon="13.6666711"><ele>818.0</ele><time>2026-04-19T09:15:04.592Z</time></trkpt><trkpt lat="42.0281608" lon="13.6666767"><ele>818.0</ele><time>2026-04-19T09:15:13.629Z</time></trkpt><trkpt lat="42.0280949" lon="13.6667105"><ele>818.0</ele><time>2026-04-19T09:15:22.614Z</time></trkpt><trkpt lat="42.0280317" lon="13.6667238"><ele>818.0</ele><time>2026-04-19T09:15:38.655Z</time></trkpt><trkpt lat="42.028018" lon="13.6668107"><ele>818.0</ele><time>2026-04-19T09:15:49.63Z</time></trkpt><trkpt lat="42.0280551" lon="13.6667361"><ele>818.0</ele><time>2026-04-19T09:16:30.682Z</time></trkpt><trkpt lat="42.0281242" lon="13.6666907"><ele>818.0</ele><time>2026-04-19T09:18:27.625Z</time></trkpt><trkpt lat="42.028191" lon="13.6666682"><ele>818.0</ele><time>2026-04-19T09:18:59.63Z</time></trkpt><trkpt lat="42.0282547" lon="13.6666537"><ele>818.0</ele><time>2026-04-19T09:19:18.619Z</time></trkpt><trkpt lat="42.0282518" lon="13.6667423"><ele>818.0</ele><time>2026-04-19T09:19:43.626Z</time></trkpt><trkpt lat="42.0281883" lon="13.6667599"><ele>818.0</ele><time>2026-04-19T09:22:57.626Z</time></trkpt><trkpt lat="42.0281504" lon="13.6668351"><ele>818.0</ele><time>2026-04-19T09:23:23.627Z</time></trkpt><trkpt lat="42.0281014" lon="13.6668959"><ele>818.0</ele><time>2026-04-19T09:23:45.628Z</time></trkpt><trkpt lat="42.0280491" lon="13.6669474"><ele>818.0</ele><time>2026-04-19T09:23:53.624Z</time></trkpt><trkpt lat="42.0279702" lon="13.6669929"><ele>818.0</ele><time>2026-04-19T09:24:31.643Z</time></trkpt><trkpt lat="42.0279434" lon="13.6669129"><ele>818.0</ele><time>2026-04-19T09:24:51.58Z</time></trkpt><trkpt lat="42.0279067" lon="13.666836"><ele>818.0</ele><time>2026-04-19T09:24:57.631Z</time></trkpt><trkpt lat="42.0279633" lon="13.6668774"><ele>818.0</ele><time>2026-04-19T09:26:44.625Z</time></trkpt><trkpt lat="42.0278901" lon="13.6668743"><ele>818.0</ele><time>2026-04-19T09:27:12.627Z</time></trkpt><trkpt lat="42.0279447" lon="13.6669245"><ele>818.0</ele><time>2026-04-19T09:27:52.628Z</time></trkpt><trkpt lat="42.0280085" lon="13.6669203"><ele>818.0</ele><time>2026-04-19T09:28:03.625Z</time></trkpt><trkpt lat="42.0280767" lon="13.6669247"><ele>818.0</ele><time>2026-04-19T09:28:56.637Z</time></trkpt><trkpt lat="42.028137" lon="13.6668877"><ele>818.0</ele><time>2026-04-19T09:29:04.626Z</time></trkpt><trkpt lat="42.028179" lon="13.6668243"><ele>818.0</ele><time>2026-04-19T09:29:16.66Z</time></trkpt><trkpt lat="42.0282089" lon="13.6667455"><ele>818.0</ele><time>2026-04-19T09:30:03.626Z</time></trkpt><trkpt lat="42.0282659" lon="13.6666992"><ele>818.0</ele><time>2026-04-19T09:30:13.628Z</time></trkpt><trkpt lat="42.028357" lon="13.6666109"><ele>818.0</ele><time>2026-04-19T09:30:59.623Z</time></trkpt><trkpt lat="42.02829" lon="13.6665964"><ele>818.0</ele><time>2026-04-19T09:31:07.639Z</time></trkpt><trkpt lat="42.0282297" lon="13.6666289"><ele>818.0</ele><time>2026-04-19T09:31:18.571Z</time></trkpt><trkpt lat="42.0281656" lon="13.6666351"><ele>818.0</ele><time>2026-04-19T09:31:41.649Z</time></trkpt><trkpt lat="42.0281986" lon="13.6665618"><ele>818.0</ele><time>2026-04-19T09:32:25.625Z</time></trkpt><trkpt lat="42.0282582" lon="13.6665218"><ele>818.0</ele><time>2026-04-19T09:32:37.625Z</time></trkpt><trkpt lat="42.0283181" lon="13.6664825"><ele>818.0</ele><time>2026-04-19T09:32:47.652Z</time></trkpt><trkpt lat="42.0283823" lon="13.6664488"><ele>818.0</ele><time>2026-04-19T09:32:59.627Z</time></trkpt><trkpt lat="42.0284453" lon="13.6664474"><ele>818.0</ele><time>2026-04-19T09:33:05.662Z</time></trkpt><trkpt lat="42.0285109" lon="13.666452"><ele>818.0</ele><time>2026-04-19T09:33:19.646Z</time></trkpt><trkpt lat="42.0284441" lon="13.6664612"><ele>818.0</ele><time>2026-04-19T09:35:23.626Z</time></trkpt><trkpt lat="42.0283826" lon="13.666432"><ele>818.0</ele><time>2026-04-19T09:35:30.644Z</time></trkpt><trkpt lat="42.0283193" lon="13.6664047"><ele>818.0</ele><time>2026-04-19T09:35:39.655Z</time></trkpt><trkpt lat="42.0282557" lon="13.6663987"><ele>818.0</ele><time>2026-04-19T09:35:48.654Z</time></trkpt><trkpt lat="42.0281929" lon="13.6664157"><ele>818.0</ele><time>2026-04-19T09:36:09.576Z</time></trkpt><trkpt lat="42.0281322" lon="13.6664528"><ele>818.0</ele><time>2026-04-19T09:36:16.624Z</time></trkpt><trkpt lat="42.0280762" lon="13.6664063"><ele>818.0</ele><time>2026-04-19T09:36:24.623Z</time></trkpt><trkpt lat="42.0280141" lon="13.6663629"><ele>818.0</ele><time>2026-04-19T09:36:40.624Z</time></trkpt><trkpt lat="42.0279497" lon="13.6663262"><ele>818.0</ele><time>2026-04-19T09:36:48.553Z</time></trkpt><trkpt lat="42.0279049" lon="13.666259"><ele>818.0</ele><time>2026-04-19T09:36:57.58Z</time></trkpt><trkpt lat="42.027861" lon="13.6661922"><ele>818.0</ele><time>2026-04-19T09:37:08.642Z</time></trkpt><trkpt lat="42.0277871" lon="13.66619"><ele>818.0</ele><time>2026-04-19T09:37:22.622Z</time></trkpt><trkpt lat="42.027738" lon="13.6661311"><ele>818.0</ele><time>2026-04-19T09:38:26.628Z</time></trkpt><trkpt lat="42.0276694" lon="13.6661013"><ele>818.0</ele><time>2026-04-19T09:38:32.657Z</time></trkpt><trkpt lat="42.0276022" lon="13.6660613"><ele>816.5714285714286</ele><time>2026-04-19T09:38:39.635Z</time></trkpt><trkpt lat="42.0275301" lon="13.6660855"><ele>815.1428571428572</ele><time>2026-04-19T09:38:46.638Z</time></trkpt><trkpt lat="42.0274494" lon="13.6661194"><ele>813.7142857142858</ele><time>2026-04-19T09:41:22.624Z</time></trkpt><trkpt lat="42.0273805" lon="13.6661103"><ele>812.2857142857142</ele><time>2026-04-19T09:44:14.627Z</time></trkpt><trkpt lat="42.0273151" lon="13.66608"><ele>810.8571428571429</ele><time>2026-04-19T09:44:20.626Z</time></trkpt><trkpt lat="42.0272503" lon="13.6660672"><ele>809.4285714285714</ele><time>2026-04-19T09:44:27.631Z</time></trkpt><trkpt lat="42.0271802" lon="13.6660645"><ele>808.0</ele><time>2026-04-19T09:44:33.558Z</time></trkpt><trkpt lat="42.0271168" lon="13.6660766"><ele>805.0</ele><time>2026-04-19T09:44:38.621Z</time></trkpt><trkpt lat="42.0270485" lon="13.6660552"><ele>802.0</ele><time>2026-04-19T09:44:44.628Z</time></trkpt><trkpt lat="42.0269806" lon="13.6660401"><ele>799.0</ele><time>2026-04-19T09:44:50.625Z</time></trkpt><trkpt lat="42.026912" lon="13.6660384"><ele>796.0</ele><time>2026-04-19T09:44:56.654Z</time></trkpt><trkpt lat="42.0268443" lon="13.6660484"><ele>793.0</ele><time>2026-04-19T09:45:02.621Z</time></trkpt><trkpt lat="42.0267728" lon="13.6660373"><ele>790.0</ele><time>2026-04-19T09:45:08.571Z</time></trkpt><trkpt lat="42.0267083" lon="13.666026"><ele>787.0</ele><time>2026-04-19T09:45:14.598Z</time></trkpt><trkpt lat="42.0266452" lon="13.6660567"><ele>788.4285714285714</ele><time>2026-04-19T09:45:20.499Z</time></trkpt><trkpt lat="42.0265728" lon="13.6660455"><ele>789.8571428571429</ele><time>2026-04-19T09:45:27.642Z</time></trkpt><trkpt lat="42.0265082" lon="13.6660555"><ele>791.2857142857142</ele><time>2026-04-19T09:45:34.621Z</time></trkpt><trkpt lat="42.0264463" lon="13.6660805"><ele>792.7142857142858</ele><time>2026-04-19T09:45:42.597Z</time></trkpt><trkpt lat="42.0263784" lon="13.6660685"><ele>794.1428571428572</ele><time>2026-04-19T09:45:47.623Z</time></trkpt><trkpt lat="42.0263087" lon="13.6660424"><ele>795.5714285714286</ele><time>2026-04-19T09:45:54.581Z</time></trkpt><trkpt lat="42.026242" lon="13.666026"><ele>797.0</ele><time>2026-04-19T09:46:01.553Z</time></trkpt><trkpt lat="42.0261747" lon="13.6660245"><ele>797.0</ele><time>2026-04-19T09:46:09.629Z</time></trkpt><trkpt lat="42.0261092" lon="13.6660415"><ele>797.0</ele><time>2026-04-19T09:46:16.638Z</time></trkpt><trkpt lat="42.0260648" lon="13.6661095"><ele>797.0</ele><time>2026-04-19T09:46:26.623Z</time></trkpt><trkpt lat="42.0259919" lon="13.6660999"><ele>797.0</ele><time>2026-04-19T09:47:02.625Z</time></trkpt><trkpt lat="42.0259285" lon="13.6661302"><ele>797.0</ele><time>2026-04-19T09:47:10.626Z</time></trkpt><trkpt lat="42.0258726" lon="13.6661725"><ele>797.0</ele><time>2026-04-19T09:47:18.62Z</time></trkpt><trkpt lat="42.0259387" lon="13.6662191"><ele>797.0</ele><time>2026-04-19T09:48:00.624Z</time></trkpt><trkpt lat="42.0259993" lon="13.666249"><ele>797.5714285714286</ele><time>2026-04-19T09:48:05.612Z</time></trkpt><trkpt lat="42.0260617" lon="13.6662728"><ele>798.1428571428572</ele><time>2026-04-19T09:48:11.635Z</time></trkpt><trkpt lat="42.0261199" lon="13.6663113"><ele>798.7142857142858</ele><time>2026-04-19T09:48:18.627Z</time></trkpt><trkpt lat="42.0261678" lon="13.6663773"><ele>799.2857142857142</ele><time>2026-04-19T09:48:25.623Z</time></trkpt><trkpt lat="42.0262297" lon="13.6664074"><ele>799.8571428571429</ele><time>2026-04-19T09:48:41.622Z</time></trkpt><trkpt lat="42.0262927" lon="13.6664368"><ele>800.4285714285714</ele><time>2026-04-19T09:48:47.652Z</time></trkpt><trkpt lat="42.0263514" lon="13.6664875"><ele>801.0</ele><time>2026-04-19T09:48:54.624Z</time></trkpt><trkpt lat="42.0264178" lon="13.6664845"><ele>801.0</ele><time>2026-04-19T09:49:01.637Z</time></trkpt><trkpt lat="42.0264839" lon="13.6664704"><ele>801.0</ele><time>2026-04-19T09:49:08.676Z</time></trkpt><trkpt lat="42.0265478" lon="13.6664794"><ele>801.0</ele><time>2026-04-19T09:49:15.628Z</time></trkpt><trkpt lat="42.0266122" lon="13.6664746"><ele>801.0</ele><time>2026-04-19T09:49:22.624Z</time></trkpt><trkpt lat="42.0266644" lon="13.6665375"><ele>801.0</ele><time>2026-04-19T09:49:33.63Z</time></trkpt><trkpt lat="42.0267318" lon="13.6665199"><ele>801.0</ele><time>2026-04-19T09:49:45.623Z</time></trkpt><trkpt lat="42.0267919" lon="13.6665523"><ele>801.0</ele><time>2026-04-19T09:49:52.645Z</time></trkpt><trkpt lat="42.0268609" lon="13.6665709"><ele>802.0</ele><time>2026-04-19T09:50:11.615Z</time></trkpt><trkpt lat="42.0269303" lon="13.6665762"><ele>803.0</ele><time>2026-04-19T09:50:26.652Z</time></trkpt><trkpt lat="42.0270004" lon="13.6665585"><ele>804.0</ele><time>2026-04-19T09:50:32.621Z</time></trkpt><trkpt lat="42.0270651" lon="13.6665484"><ele>805.0</ele><time>2026-04-19T09:50:39.689Z</time></trkpt><trkpt lat="42.0271373" lon="13.666545"><ele>806.0</ele><time>2026-04-19T09:50:47.595Z</time></trkpt><trkpt lat="42.0272049" lon="13.666564"><ele>807.0</ele><time>2026-04-19T09:50:55.628Z</time></trkpt><trkpt lat="42.0272681" lon="13.6665807"><ele>808.0</ele><time>2026-04-19T09:51:02.621Z</time></trkpt><trkpt lat="42.0273289" lon="13.6666268"><ele>808.0</ele><time>2026-04-19T09:51:09.625Z</time></trkpt><trkpt lat="42.0273932" lon="13.6666591"><ele>808.0</ele><time>2026-04-19T09:51:32.651Z</time></trkpt><trkpt lat="42.0274564" lon="13.6666912"><ele>808.0</ele><time>2026-04-19T09:51:45.629Z</time></trkpt><trkpt lat="42.0275226" lon="13.6667209"><ele>808.0</ele><time>2026-04-19T09:52:24.622Z</time></trkpt><trkpt lat="42.027499" lon="13.666805"><ele>808.0</ele><time>2026-04-19T09:53:07.62Z</time></trkpt><trkpt lat="42.0275074" lon="13.6668908"><ele>808.0</ele><time>2026-04-19T09:53:14.62Z</time></trkpt><trkpt lat="42.0275726" lon="13.6668808"><ele>808.0</ele><time>2026-04-19T09:53:59.624Z</time></trkpt><trkpt lat="42.0276199" lon="13.6668208"><ele>809.4285714285714</ele><time>2026-04-19T09:54:03.56Z</time></trkpt><trkpt lat="42.0275398" lon="13.6667957"><ele>810.8571428571429</ele><time>2026-04-19T09:54:23.619Z</time></trkpt><trkpt lat="42.0275301" lon="13.6667096"><ele>812.2857142857142</ele><time>2026-04-19T09:54:58.622Z</time></trkpt><trkpt lat="42.0275535" lon="13.6666263"><ele>813.7142857142858</ele><time>2026-04-19T09:55:05.662Z</time></trkpt><trkpt lat="42.0276123" lon="13.6665778"><ele>815.1428571428572</ele><time>2026-04-19T09:55:11.622Z</time></trkpt><trkpt lat="42.0276696" lon="13.6665359"><ele>816.5714285714286</ele><time>2026-04-19T09:55:17.642Z</time></trkpt><trkpt lat="42.0277319" lon="13.6665108"><ele>818.0</ele><time>2026-04-19T09:55:40.636Z</time></trkpt><trkpt lat="42.0276637" lon="13.6665308"><ele>818.0</ele><time>2026-04-19T09:57:19.663Z</time></trkpt><trkpt lat="42.027603" lon="13.6665654"><ele>818.0</ele><time>2026-04-19T09:58:16.672Z</time></trkpt><trkpt lat="42.0275493" lon="13.6666339"><ele>818.0</ele><time>2026-04-19T09:58:28.649Z</time></trkpt><trkpt lat="42.0274894" lon="13.6666864"><ele>818.0</ele><time>2026-04-19T09:58:34.635Z</time></trkpt><trkpt lat="42.0274235" lon="13.6667073"><ele>818.0</ele><time>2026-04-19T09:58:45.571Z</time></trkpt><trkpt lat="42.0273562" lon="13.6666949"><ele>818.0</ele><time>2026-04-19T09:59:03.622Z</time></trkpt><trkpt lat="42.0272827" lon="13.6667086"><ele>818.0</ele><time>2026-04-19T10:00:27.584Z</time></trkpt><trkpt lat="42.0272136" lon="13.6667014"><ele>816.5714285714286</ele><time>2026-04-19T10:00:54.626Z</time></trkpt><trkpt lat="42.0271501" lon="13.6666897"><ele>815.1428571428572</ele><time>2026-04-19T10:00:59.623Z</time></trkpt><trkpt lat="42.0270904" lon="13.6667171"><ele>813.7142857142858</ele><time>2026-04-19T10:01:05.624Z</time></trkpt><trkpt lat="42.0270334" lon="13.6667714"><ele>812.2857142857142</ele><time>2026-04-19T10:01:13.646Z</time></trkpt><trkpt lat="42.0269774" lon="13.6668112"><ele>810.8571428571429</ele><time>2026-04-19T10:01:22.621Z</time></trkpt><trkpt lat="42.0269301" lon="13.6668687"><ele>809.4285714285714</ele><time>2026-04-19T10:01:40.621Z</time></trkpt><trkpt lat="42.0268866" lon="13.6669354"><ele>808.0</ele><time>2026-04-19T10:01:49.576Z</time></trkpt><trkpt lat="42.0268246" lon="13.6669521"><ele>809.5714285714286</ele><time>2026-04-19T10:02:12.62Z</time></trkpt><trkpt lat="42.0267742" lon="13.6670148"><ele>811.1428571428571</ele><time>2026-04-19T10:02:19.659Z</time></trkpt><trkpt lat="42.026725" lon="13.6671018"><ele>812.7142857142858</ele><time>2026-04-19T10:04:05.621Z</time></trkpt><trkpt lat="42.0266787" lon="13.667162"><ele>814.2857142857142</ele><time>2026-04-19T10:04:45.623Z</time></trkpt><trkpt lat="42.0266258" lon="13.6672113"><ele>815.8571428571429</ele><time>2026-04-19T10:04:53.619Z</time></trkpt><trkpt lat="42.0265974" lon="13.667293"><ele>817.4285714285714</ele><time>2026-04-19T10:05:00.656Z</time></trkpt><trkpt lat="42.0265534" lon="13.6673648"><ele>819.0</ele><time>2026-04-19T10:05:08.623Z</time></trkpt><trkpt lat="42.0265029" lon="13.6674165"><ele>819.0</ele><time>2026-04-19T10:05:15.574Z</time></trkpt><trkpt lat="42.0264687" lon="13.667488"><ele>819.0</ele><time>2026-04-19T10:05:23.561Z</time></trkpt><trkpt lat="42.0264147" lon="13.667541"><ele>819.0</ele><time>2026-04-19T10:06:26.554Z</time></trkpt><trkpt lat="42.0263569" lon="13.6675931"><ele>819.0</ele><time>2026-04-19T10:06:32.521Z</time></trkpt><trkpt lat="42.0263142" lon="13.667667"><ele>819.0</ele><time>2026-04-19T10:06:38.599Z</time></trkpt><trkpt lat="42.0262603" lon="13.6677295"><ele>819.0</ele><time>2026-04-19T10:06:45.62Z</time></trkpt><trkpt lat="42.02621" lon="13.6678015"><ele>819.0</ele><time>2026-04-19T10:06:52.555Z</time></trkpt><trkpt lat="42.026187" lon="13.6678866"><ele>823.0</ele><time>2026-04-19T10:06:59.621Z</time></trkpt><trkpt lat="42.0261424" lon="13.6679619"><ele>827.0</ele><time>2026-04-19T10:07:19.624Z</time></trkpt><trkpt lat="42.0260985" lon="13.6680328"><ele>831.0</ele><time>2026-04-19T10:07:27.62Z</time></trkpt><trkpt lat="42.0260868" lon="13.6681168"><ele>835.0</ele><time>2026-04-19T10:07:34.62Z</time></trkpt><trkpt lat="42.0260499" lon="13.6681934"><ele>839.0</ele><time>2026-04-19T10:07:42.674Z</time></trkpt><trkpt lat="42.0260148" lon="13.6682711"><ele>843.0</ele><time>2026-04-19T10:07:50.593Z</time></trkpt><trkpt lat="42.0259579" lon="13.6683149"><ele>847.0</ele><time>2026-04-19T10:07:57.652Z</time></trkpt><trkpt lat="42.0259165" lon="13.6683888"><ele>847.0</ele><time>2026-04-19T10:08:06.561Z</time></trkpt><trkpt lat="42.0258579" lon="13.6684458"><ele>847.0</ele><time>2026-04-19T10:08:14.656Z</time></trkpt><trkpt lat="42.0259396" lon="13.6684846"><ele>847.0</ele><time>2026-04-19T10:08:48.665Z</time></trkpt><trkpt lat="42.0259917" lon="13.6684227"><ele>847.0</ele><time>2026-04-19T10:08:54.619Z</time></trkpt><trkpt lat="42.0260492" lon="13.6683859"><ele>847.0</ele><time>2026-04-19T10:09:00.574Z</time></trkpt><trkpt lat="42.0261147" lon="13.6683482"><ele>847.0</ele><time>2026-04-19T10:09:08.593Z</time></trkpt><trkpt lat="42.0261665" lon="13.6682879"><ele>847.0</ele><time>2026-04-19T10:09:16.531Z</time></trkpt><trkpt lat="42.0262161" lon="13.6682283"><ele>847.0</ele><time>2026-04-19T10:09:24.621Z</time></trkpt><trkpt lat="42.0262749" lon="13.668195"><ele>847.0</ele><time>2026-04-19T10:09:33.641Z</time></trkpt><trkpt lat="42.0263279" lon="13.668147"><ele>847.0</ele><time>2026-04-19T10:10:07.618Z</time></trkpt><trkpt lat="42.0263769" lon="13.6680928"><ele>847.0</ele><time>2026-04-19T10:10:18.624Z</time></trkpt><trkpt lat="42.0264526" lon="13.6680634"><ele>847.0</ele><time>2026-04-19T10:10:29.624Z</time></trkpt><trkpt lat="42.0265163" lon="13.6680638"><ele>847.0</ele><time>2026-04-19T10:10:35.623Z</time></trkpt><trkpt lat="42.0265813" lon="13.6680412"><ele>847.0</ele><time>2026-04-19T10:10:44.62Z</time></trkpt><trkpt lat="42.0266378" lon="13.6679982"><ele>850.8571428571429</ele><time>2026-04-19T10:10:52.573Z</time></trkpt><trkpt lat="42.0266929" lon="13.6679502"><ele>854.7142857142858</ele><time>2026-04-19T10:11:14.664Z</time></trkpt><trkpt lat="42.0267586" lon="13.6679135"><ele>858.5714285714286</ele><time>2026-04-19T10:11:21.62Z</time></trkpt><trkpt lat="42.0268087" lon="13.6678541"><ele>862.4285714285714</ele><time>2026-04-19T10:11:28.648Z</time></trkpt><trkpt lat="42.0268716" lon="13.6678202"><ele>866.2857142857143</ele><time>2026-04-19T10:11:36.617Z</time></trkpt><trkpt lat="42.0269331" lon="13.6677979"><ele>870.1428571428571</ele><time>2026-04-19T10:11:43.66Z</time></trkpt><trkpt lat="42.0270008" lon="13.6677829"><ele>874.0</ele><time>2026-04-19T10:11:51.62Z</time></trkpt><trkpt lat="42.027071" lon="13.6677847"><ele>874.0</ele><time>2026-04-19T10:11:59.638Z</time></trkpt><trkpt lat="42.0271352" lon="13.6677782"><ele>874.0</ele><time>2026-04-19T10:12:06.637Z</time></trkpt><trkpt lat="42.0271987" lon="13.6677428"><ele>874.0</ele><time>2026-04-19T10:12:14.63Z</time></trkpt><trkpt lat="42.0272657" lon="13.6677343"><ele>874.0</ele><time>2026-04-19T10:12:22.621Z</time></trkpt><trkpt lat="42.0273296" lon="13.6677203"><ele>874.0</ele><time>2026-04-19T10:12:30.628Z</time></trkpt><trkpt lat="42.0273574" lon="13.6678044"><ele>874.0</ele><time>2026-04-19T10:13:36.638Z</time></trkpt><trkpt lat="42.0273501" lon="13.6678919"><ele>874.0</ele><time>2026-04-19T10:13:43.622Z</time></trkpt><trkpt lat="42.0273288" lon="13.6679804"><ele>874.0</ele><time>2026-04-19T10:13:50.624Z</time></trkpt><trkpt lat="42.027269" lon="13.6680263"><ele>874.0</ele><time>2026-04-19T10:13:56.62Z</time></trkpt><trkpt lat="42.0272134" lon="13.6680716"><ele>874.0</ele><time>2026-04-19T10:14:04.62Z</time></trkpt><trkpt lat="42.027145" lon="13.6680934"><ele>874.0</ele><time>2026-04-19T10:14:21.62Z</time></trkpt><trkpt lat="42.0271948" lon="13.6681645"><ele>874.0</ele><time>2026-04-19T10:17:13.616Z</time></trkpt><trkpt lat="42.0271419" lon="13.6681091"><ele>874.0</ele><time>2026-04-19T10:25:05.618Z</time></trkpt><trkpt lat="42.0271787" lon="13.6681882"><ele>874.0</ele><time>2026-04-19T10:25:22.618Z</time></trkpt><trkpt lat="42.0272303" lon="13.6681339"><ele>874.0</ele><time>2026-04-19T10:26:07.617Z</time></trkpt><trkpt lat="42.0272087" lon="13.6682143"><ele>874.0</ele><time>2026-04-19T10:26:40.617Z</time></trkpt><trkpt lat="42.02716" lon="13.6681545"><ele>874.0</ele><time>2026-04-19T10:27:06.623Z</time></trkpt><trkpt lat="42.0271245" lon="13.6682343"><ele>874.0</ele><time>2026-04-19T10:27:14.622Z</time></trkpt><trkpt lat="42.0270879" lon="13.6683153"><ele>874.0</ele><time>2026-04-19T10:27:22.618Z</time></trkpt><trkpt lat="42.0270383" lon="13.6683703"><ele>874.0</ele><time>2026-04-19T10:27:41.619Z</time></trkpt><trkpt lat="42.0270004" lon="13.6684506"><ele>874.0</ele><time>2026-04-19T10:27:49.617Z</time></trkpt><trkpt lat="42.0269569" lon="13.6685213"><ele>874.0</ele><time>2026-04-19T10:27:58.62Z</time></trkpt><trkpt lat="42.0269293" lon="13.6686003"><ele>874.0</ele><time>2026-04-19T10:28:07.619Z</time></trkpt><trkpt lat="42.026895" lon="13.6686718"><ele>874.0</ele><time>2026-04-19T10:28:13.62Z</time></trkpt><trkpt lat="42.0268736" lon="13.6687557"><ele>874.0</ele><time>2026-04-19T10:28:39.619Z</time></trkpt><trkpt lat="42.0268583" lon="13.6688405"><ele>874.0</ele><time>2026-04-19T10:28:47.621Z</time></trkpt><trkpt lat="42.0268281" lon="13.6689168"><ele>874.0</ele><time>2026-04-19T10:28:56.618Z</time></trkpt><trkpt lat="42.026807" lon="13.6690053"><ele>874.0</ele><time>2026-04-19T10:29:08.618Z</time></trkpt><trkpt lat="42.0268044" lon="13.6690971"><ele>877.0</ele><time>2026-04-19T10:29:24.618Z</time></trkpt><trkpt lat="42.0267551" lon="13.669152"><ele>880.0</ele><time>2026-04-19T10:29:29.621Z</time></trkpt><trkpt lat="42.0267419" lon="13.6692406"><ele>883.0</ele><time>2026-04-19T10:29:37.619Z</time></trkpt><trkpt lat="42.026721" lon="13.6693235"><ele>886.0</ele><time>2026-04-19T10:29:52.617Z</time></trkpt><trkpt lat="42.0267024" lon="13.6694078"><ele>889.0</ele><time>2026-04-19T10:30:02.619Z</time></trkpt><trkpt lat="42.0267003" lon="13.6694937"><ele>892.0</ele><time>2026-04-19T10:30:12.616Z</time></trkpt><trkpt lat="42.0266573" lon="13.6695595"><ele>895.0</ele><time>2026-04-19T10:30:55.617Z</time></trkpt><trkpt lat="42.0266348" lon="13.669641"><ele>896.0</ele><time>2026-04-19T10:31:02.618Z</time></trkpt><trkpt lat="42.0265996" lon="13.6697121"><ele>897.0</ele><time>2026-04-19T10:31:10.619Z</time></trkpt><trkpt lat="42.0265281" lon="13.6697633"><ele>898.0</ele><time>2026-04-19T10:31:21.654Z</time></trkpt><trkpt lat="42.0265323" lon="13.6698638"><ele>899.0</ele><time>2026-04-19T10:31:28.615Z</time></trkpt><trkpt lat="42.0264988" lon="13.6699373"><ele>900.0</ele><time>2026-04-19T10:31:35.639Z</time></trkpt><trkpt lat="42.0264626" lon="13.6700195"><ele>901.0</ele><time>2026-04-19T10:31:44.617Z</time></trkpt><trkpt lat="42.0264271" lon="13.6700978"><ele>902.0</ele><time>2026-04-19T10:32:03.527Z</time></trkpt><trkpt lat="42.026407" lon="13.6701804"><ele>902.0</ele><time>2026-04-19T10:32:08.617Z</time></trkpt><trkpt lat="42.0263944" lon="13.670273"><ele>902.0</ele><time>2026-04-19T10:32:14.618Z</time></trkpt><trkpt lat="42.0263492" lon="13.6703426"><ele>902.0</ele><time>2026-04-19T10:32:43.617Z</time></trkpt><trkpt lat="42.0263173" lon="13.670424"><ele>902.0</ele><time>2026-04-19T10:32:50.554Z</time></trkpt><trkpt lat="42.0263376" lon="13.6705058"><ele>902.0</ele><time>2026-04-19T10:33:00.547Z</time></trkpt><trkpt lat="42.0262728" lon="13.6705459"><ele>902.0</ele><time>2026-04-19T10:33:05.618Z</time></trkpt><trkpt lat="42.0262911" lon="13.6706511"><ele>902.0</ele><time>2026-04-19T10:34:11.619Z</time></trkpt><trkpt lat="42.0262576" lon="13.6707332"><ele>904.8571428571429</ele><time>2026-04-19T10:34:16.614Z</time></trkpt><trkpt lat="42.0262364" lon="13.6708275"><ele>907.7142857142858</ele><time>2026-04-19T10:34:25.649Z</time></trkpt><trkpt lat="42.026214" lon="13.6709113"><ele>910.5714285714287</ele><time>2026-04-19T10:34:35.618Z</time></trkpt><trkpt lat="42.0261733" lon="13.6709833"><ele>913.4285714285714</ele><time>2026-04-19T10:34:46.619Z</time></trkpt><trkpt lat="42.0261046" lon="13.6710153"><ele>916.2857142857144</ele><time>2026-04-19T10:35:23.617Z</time></trkpt><trkpt lat="42.0260386" lon="13.671044"><ele>919.1428571428572</ele><time>2026-04-19T10:35:29.617Z</time></trkpt><trkpt lat="42.0260164" lon="13.6711334"><ele>922.0</ele><time>2026-04-19T10:35:37.616Z</time></trkpt><trkpt lat="42.0260393" lon="13.6712194"><ele>923.4285714285714</ele><time>2026-04-19T10:35:44.634Z</time></trkpt><trkpt lat="42.026009" lon="13.6713177"><ele>924.8571428571429</ele><time>2026-04-19T10:36:03.651Z</time></trkpt><trkpt lat="42.0260032" lon="13.6714058"><ele>926.2857142857143</ele><time>2026-04-19T10:36:12.532Z</time></trkpt><trkpt lat="42.0259833" lon="13.6714948"><ele>927.7142857142858</ele><time>2026-04-19T10:36:22.616Z</time></trkpt><trkpt lat="42.0259242" lon="13.6715326"><ele>929.1428571428571</ele><time>2026-04-19T10:36:29.616Z</time></trkpt><trkpt lat="42.0259188" lon="13.6716199"><ele>930.5714285714287</ele><time>2026-04-19T10:36:41.622Z</time></trkpt><trkpt lat="42.0259152" lon="13.6717122"><ele>932.0</ele><time>2026-04-19T10:37:21.613Z</time></trkpt><trkpt lat="42.0258823" lon="13.6717856"><ele>932.0</ele><time>2026-04-19T10:37:29.613Z</time></trkpt><trkpt lat="42.0258164" lon="13.6718066"><ele>932.0</ele><time>2026-04-19T10:37:34.62Z</time></trkpt><trkpt lat="42.0257622" lon="13.6718576"><ele>932.0</ele><time>2026-04-19T10:37:42.614Z</time></trkpt><trkpt lat="42.0257327" lon="13.6719503"><ele>932.0</ele><time>2026-04-19T10:38:05.615Z</time></trkpt><trkpt lat="42.0257474" lon="13.6720381"><ele>932.0</ele><time>2026-04-19T10:38:12.669Z</time></trkpt><trkpt lat="42.0257265" lon="13.6721257"><ele>932.0</ele><time>2026-04-19T10:38:42.616Z</time></trkpt><trkpt lat="42.0257727" lon="13.6720675"><ele>932.0</ele><time>2026-04-19T10:38:59.628Z</time></trkpt><trkpt lat="42.0258396" lon="13.67203"><ele>930.4285714285714</ele><time>2026-04-19T10:39:16.647Z</time></trkpt><trkpt lat="42.0257752" lon="13.6720349"><ele>928.8571428571429</ele><time>2026-04-19T10:39:33.67Z</time></trkpt><trkpt lat="42.0257078" lon="13.6720499"><ele>927.2857142857143</ele><time>2026-04-19T10:39:41.63Z</time></trkpt><trkpt lat="42.0257055" lon="13.6721418"><ele>925.7142857142858</ele><time>2026-04-19T10:39:48.626Z</time></trkpt><trkpt lat="42.0256844" lon="13.6722307"><ele>924.1428571428571</ele><time>2026-04-19T10:39:57.616Z</time></trkpt><trkpt lat="42.0257021" lon="13.672316"><ele>922.5714285714287</ele><time>2026-04-19T10:40:09.614Z</time></trkpt><trkpt lat="42.0257186" lon="13.6724045"><ele>921.0000000000001</ele><time>2026-04-19T10:40:18.615Z</time></trkpt><trkpt lat="42.0256533" lon="13.6724112"><ele>921.0000000000001</ele><time>2026-04-19T10:40:31.675Z</time></trkpt><trkpt lat="42.0255907" lon="13.6723826"><ele>921.0</ele><time>2026-04-19T10:40:42.631Z</time></trkpt><trkpt lat="42.0255275" lon="13.6723852"><ele>921.0000000000001</ele><time>2026-04-19T10:40:54.629Z</time></trkpt><trkpt lat="42.0254644" lon="13.6724163"><ele>921.0000000000001</ele><time>2026-04-19T10:41:04.615Z</time></trkpt><trkpt lat="42.0254652" lon="13.6725057"><ele>921.0</ele><time>2026-04-19T10:41:26.615Z</time></trkpt><trkpt lat="42.0254371" lon="13.6725903"><ele>921.0000000000001</ele><time>2026-04-19T10:41:33.617Z</time></trkpt><trkpt lat="42.0253946" lon="13.6726601"><ele>921.0000000000001</ele><time>2026-04-19T10:41:40.613Z</time></trkpt><trkpt lat="42.0253671" lon="13.6727456"><ele>922.1428571428573</ele><time>2026-04-19T10:41:48.572Z</time></trkpt><trkpt lat="42.0253278" lon="13.672828"><ele>923.2857142857143</ele><time>2026-04-19T10:41:55.615Z</time></trkpt><trkpt lat="42.0253034" lon="13.6729131"><ele>924.4285714285716</ele><time>2026-04-19T10:42:02.613Z</time></trkpt><trkpt lat="42.0252771" lon="13.6729973"><ele>925.5714285714287</ele><time>2026-04-19T10:42:47.533Z</time></trkpt><trkpt lat="42.0252418" lon="13.6730839"><ele>926.7142857142858</ele><time>2026-04-19T10:42:53.655Z</time></trkpt><trkpt lat="42.0252012" lon="13.6731506"><ele>927.8571428571429</ele><time>2026-04-19T10:42:59.587Z</time></trkpt><trkpt lat="42.0251581" lon="13.6732127"><ele>929.0</ele><time>2026-04-19T10:43:07.64Z</time></trkpt><trkpt lat="42.0251307" lon="13.6733044"><ele>929.0</ele><time>2026-04-19T10:43:30.614Z</time></trkpt><trkpt lat="42.0251224" lon="13.6733923"><ele>929.0000000000001</ele><time>2026-04-19T10:44:02.617Z</time></trkpt><trkpt lat="42.0251797" lon="13.6734422"><ele>929.0</ele><time>2026-04-19T10:44:19.617Z</time></trkpt><trkpt lat="42.0252422" lon="13.6734181"><ele>929.0</ele><time>2026-04-19T10:44:27.629Z</time></trkpt><trkpt lat="42.0253044" lon="13.6734337"><ele>929.0000000000001</ele><time>2026-04-19T10:44:38.623Z</time></trkpt><trkpt lat="42.0253437" lon="13.6735039"><ele>929.0</ele><time>2026-04-19T10:44:51.615Z</time></trkpt><trkpt lat="42.0253115" lon="13.6735783"><ele>929.0</ele><time>2026-04-19T10:45:13.619Z</time></trkpt><trkpt lat="42.0252704" lon="13.673652"><ele>928.8571428571429</ele><time>2026-04-19T10:48:23.612Z</time></trkpt><trkpt lat="42.0252365" lon="13.6737263"><ele>928.7142857142858</ele><time>2026-04-19T10:48:29.618Z</time></trkpt><trkpt lat="42.0251851" lon="13.6737794"><ele>928.5714285714287</ele><time>2026-04-19T10:48:37.547Z</time></trkpt><trkpt lat="42.0251883" lon="13.6738702"><ele>928.4285714285716</ele><time>2026-04-19T10:48:46.615Z</time></trkpt><trkpt lat="42.025127" lon="13.6738347"><ele>928.2857142857143</ele><time>2026-04-19T10:49:00.615Z</time></trkpt><trkpt lat="42.0250593" lon="13.6738182"><ele>928.1428571428573</ele><time>2026-04-19T10:49:15.617Z</time></trkpt><trkpt lat="42.0249921" lon="13.6738106"><ele>928.0000000000001</ele><time>2026-04-19T10:49:34.613Z</time></trkpt><trkpt lat="42.0249476" lon="13.6738781"><ele>928.0000000000001</ele><time>2026-04-19T10:49:41.588Z</time></trkpt><trkpt lat="42.0249086" lon="13.6739555"><ele>928.0</ele><time>2026-04-19T10:49:56.612Z</time></trkpt><trkpt lat="42.0248953" lon="13.6740386"><ele>928.0000000000001</ele><time>2026-04-19T10:50:59.612Z</time></trkpt><trkpt lat="42.0248763" lon="13.6741287"><ele>928.0000000000001</ele><time>2026-04-19T10:51:06.611Z</time></trkpt><trkpt lat="42.0248318" lon="13.6741891"><ele>928.0</ele><time>2026-04-19T10:51:12.612Z</time></trkpt><trkpt lat="42.0247904" lon="13.6742587"><ele>928.0000000000001</ele><time>2026-04-19T10:51:19.631Z</time></trkpt><trkpt lat="42.024763" lon="13.6743383"><ele>928.0000000000001</ele><time>2026-04-19T10:51:44.611Z</time></trkpt><trkpt lat="42.0247136" lon="13.6744005"><ele>928.2857142857144</ele><time>2026-04-19T10:52:01.612Z</time></trkpt><trkpt lat="42.0246586" lon="13.6744582"><ele>928.5714285714287</ele><time>2026-04-19T10:52:08.668Z</time></trkpt><trkpt lat="42.0246289" lon="13.6745453"><ele>928.8571428571429</ele><time>2026-04-19T10:52:15.612Z</time></trkpt><trkpt lat="42.0245907" lon="13.674624"><ele>929.1428571428572</ele><time>2026-04-19T10:52:22.615Z</time></trkpt><trkpt lat="42.0245573" lon="13.6747108"><ele>929.4285714285716</ele><time>2026-04-19T10:52:29.672Z</time></trkpt><trkpt lat="42.0245321" lon="13.6747953"><ele>929.7142857142857</ele><time>2026-04-19T10:52:36.638Z</time></trkpt><trkpt lat="42.0245033" lon="13.6748787"><ele>930.0</ele><time>2026-04-19T10:52:43.618Z</time></trkpt><trkpt lat="42.0244597" lon="13.6749567"><ele>930.0</ele><time>2026-04-19T10:52:51.631Z</time></trkpt><trkpt lat="42.0244023" lon="13.6750267"><ele>930.0</ele><time>2026-04-19T10:53:07.566Z</time></trkpt><trkpt lat="42.0243731" lon="13.6751019"><ele>930.0</ele><time>2026-04-19T10:53:14.617Z</time></trkpt><trkpt lat="42.024367" lon="13.6751922"><ele>930.0</ele><time>2026-04-19T10:53:21.553Z</time></trkpt><trkpt lat="42.0243549" lon="13.6752826"><ele>930.0</ele><time>2026-04-19T10:53:28.612Z</time></trkpt><trkpt lat="42.0243484" lon="13.6753788"><ele>930.0</ele><time>2026-04-19T10:53:42.649Z</time></trkpt><trkpt lat="42.0243562" lon="13.6754678"><ele>930.0</ele><time>2026-04-19T10:53:48.487Z</time></trkpt><trkpt lat="42.0243447" lon="13.6755576"><ele>929.2857142857142</ele><time>2026-04-19T10:53:57.643Z</time></trkpt><trkpt lat="42.0243541" lon="13.6756441"><ele>928.5714285714287</ele><time>2026-04-19T10:54:04.615Z</time></trkpt><trkpt lat="42.0243356" lon="13.675727"><ele>927.8571428571429</ele><time>2026-04-19T10:54:12.636Z</time></trkpt><trkpt lat="42.0243788" lon="13.675796"><ele>927.1428571428571</ele><time>2026-04-19T10:54:19.613Z</time></trkpt><trkpt lat="42.0243965" lon="13.6758819"><ele>926.4285714285713</ele><time>2026-04-19T10:54:28.665Z</time></trkpt><trkpt lat="42.0243612" lon="13.6759623"><ele>925.7142857142858</ele><time>2026-04-19T10:54:35.613Z</time></trkpt><trkpt lat="42.0243261" lon="13.6760334"><ele>925.0</ele><time>2026-04-19T10:54:42.623Z</time></trkpt><trkpt lat="42.0243127" lon="13.676121"><ele>923.4285714285714</ele><time>2026-04-19T10:54:50.612Z</time></trkpt><trkpt lat="42.024314" lon="13.6762105"><ele>921.8571428571429</ele><time>2026-04-19T10:54:58.624Z</time></trkpt><trkpt lat="42.0242972" lon="13.676299"><ele>920.2857142857143</ele><time>2026-04-19T10:55:09.612Z</time></trkpt><trkpt lat="42.0242339" lon="13.6763027"><ele>918.7142857142858</ele><time>2026-04-19T10:56:59.612Z</time></trkpt><trkpt lat="42.0241852" lon="13.6763645"><ele>917.1428571428571</ele><time>2026-04-19T10:57:10.61Z</time></trkpt><trkpt lat="42.0241512" lon="13.6764385"><ele>915.5714285714287</ele><time>2026-04-19T10:57:21.612Z</time></trkpt><trkpt lat="42.0242175" lon="13.6764292"><ele>914.0000000000001</ele><time>2026-04-19T10:57:41.614Z</time></trkpt><trkpt lat="42.0241528" lon="13.6764239"><ele>914.0000000000001</ele><time>2026-04-19T10:58:17.615Z</time></trkpt><trkpt lat="42.0241125" lon="13.6764935"><ele>914.0</ele><time>2026-04-19T10:58:54.61Z</time></trkpt><trkpt lat="42.0240652" lon="13.6765551"><ele>914.0000000000001</ele><time>2026-04-19T10:59:12.621Z</time></trkpt><trkpt lat="42.0240556" lon="13.676646"><ele>914.0000000000001</ele><time>2026-04-19T10:59:42.612Z</time></trkpt><trkpt lat="42.0240205" lon="13.6767337"><ele>914.0</ele><time>2026-04-19T11:00:02.613Z</time></trkpt><trkpt lat="42.024033" lon="13.6768213"><ele>914.0000000000001</ele><time>2026-04-19T11:00:29.613Z</time></trkpt><trkpt lat="42.0239868" lon="13.6768919"><ele>914.0000000000001</ele><time>2026-04-19T11:00:49.618Z</time></trkpt><trkpt lat="42.0239383" lon="13.676957"><ele>914.2857142857144</ele><time>2026-04-19T11:00:59.616Z</time></trkpt><trkpt lat="42.0238749" lon="13.6769913"><ele>914.5714285714287</ele><time>2026-04-19T11:01:10.658Z</time></trkpt><trkpt lat="42.0238108" lon="13.6770002"><ele>914.8571428571429</ele><time>2026-04-19T11:01:18.619Z</time></trkpt><trkpt lat="42.0237461" lon="13.6770026"><ele>915.1428571428572</ele><time>2026-04-19T11:01:32.62Z</time></trkpt><trkpt lat="42.0237082" lon="13.6770834"><ele>915.4285714285716</ele><time>2026-04-19T11:01:43.644Z</time></trkpt><trkpt lat="42.0236438" lon="13.6771228"><ele>915.7142857142857</ele><time>2026-04-19T11:01:50.613Z</time></trkpt><trkpt lat="42.0235896" lon="13.6771684"><ele>916.0</ele><time>2026-04-19T11:01:56.623Z</time></trkpt><trkpt lat="42.0235519" lon="13.6772457"><ele>916.0</ele><time>2026-04-19T11:02:02.625Z</time></trkpt><trkpt lat="42.0235262" lon="13.6773327"><ele>916.0</ele><time>2026-04-19T11:02:09.613Z</time></trkpt><trkpt lat="42.0234779" lon="13.6773924"><ele>916.0</ele><time>2026-04-19T11:02:15.64Z</time></trkpt><trkpt lat="42.0234267" lon="13.6774478"><ele>916.0</ele><time>2026-04-19T11:02:22.612Z</time></trkpt><trkpt lat="42.0233822" lon="13.6775202"><ele>916.0</ele><time>2026-04-19T11:02:29.627Z</time></trkpt><trkpt lat="42.0233572" lon="13.6776018"><ele>916.0</ele><time>2026-04-19T11:02:36.652Z</time></trkpt><trkpt lat="42.0233275" lon="13.6776794"><ele>916.0</ele><time>2026-04-19T11:02:44.62Z</time></trkpt><trkpt lat="42.02328" lon="13.6777396"><ele>917.1428571428571</ele><time>2026-04-19T11:02:56.613Z</time></trkpt><trkpt lat="42.0232207" lon="13.6777999"><ele>918.2857142857143</ele><time>2026-04-19T11:03:04.573Z</time></trkpt><trkpt lat="42.0231666" lon="13.6778615"><ele>919.4285714285714</ele><time>2026-04-19T11:03:11.659Z</time></trkpt><trkpt lat="42.0231351" lon="13.6779422"><ele>920.5714285714286</ele><time>2026-04-19T11:03:17.627Z</time></trkpt><trkpt lat="42.0231" lon="13.6780265"><ele>921.7142857142858</ele><time>2026-04-19T11:03:24.613Z</time></trkpt><trkpt lat="42.0230685" lon="13.6781086"><ele>922.8571428571429</ele><time>2026-04-19T11:03:32.619Z</time></trkpt><trkpt lat="42.0230178" lon="13.6781775"><ele>924.0</ele><time>2026-04-19T11:03:40.658Z</time></trkpt><trkpt lat="42.0229686" lon="13.6782458"><ele>924.0</ele><time>2026-04-19T11:03:47.613Z</time></trkpt><trkpt lat="42.0229287" lon="13.6783151"><ele>924.0</ele><time>2026-04-19T11:03:54.531Z</time></trkpt><trkpt lat="42.0228757" lon="13.6783715"><ele>924.0</ele><time>2026-04-19T11:04:02.552Z</time></trkpt><trkpt lat="42.0228338" lon="13.6784449"><ele>924.0</ele><time>2026-04-19T11:04:09.611Z</time></trkpt><trkpt lat="42.0227877" lon="13.6785166"><ele>924.0</ele><time>2026-04-19T11:04:16.548Z</time></trkpt><trkpt lat="42.0227309" lon="13.6785612"><ele>924.0</ele><time>2026-04-19T11:04:23.636Z</time></trkpt><trkpt lat="42.0226861" lon="13.6786319"><ele>924.0</ele><time>2026-04-19T11:04:31.609Z</time></trkpt><trkpt lat="42.0226442" lon="13.678707"><ele>924.7142857142858</ele><time>2026-04-19T11:04:38.633Z</time></trkpt><trkpt lat="42.02261" lon="13.6787924"><ele>925.4285714285714</ele><time>2026-04-19T11:04:58.652Z</time></trkpt><trkpt lat="42.0225782" lon="13.6788661"><ele>926.1428571428571</ele><time>2026-04-19T11:05:03.612Z</time></trkpt><trkpt lat="42.022536" lon="13.6789345"><ele>926.8571428571429</ele><time>2026-04-19T11:05:10.571Z</time></trkpt><trkpt lat="42.022475" lon="13.6789777"><ele>927.5714285714287</ele><time>2026-04-19T11:05:17.657Z</time></trkpt><trkpt lat="42.0224181" lon="13.6790201"><ele>928.2857142857143</ele><time>2026-04-19T11:05:24.65Z</time></trkpt><trkpt lat="42.0223564" lon="13.6790714"><ele>929.0</ele><time>2026-04-19T11:05:32.662Z</time></trkpt><trkpt lat="42.0223014" lon="13.6791284"><ele>929.7142857142858</ele><time>2026-04-19T11:05:39.612Z</time></trkpt><trkpt lat="42.0222494" lon="13.6791784"><ele>930.4285714285716</ele><time>2026-04-19T11:05:46.649Z</time></trkpt><trkpt lat="42.022195" lon="13.6792389"><ele>931.1428571428571</ele><time>2026-04-19T11:05:54.611Z</time></trkpt><trkpt lat="42.0221412" lon="13.6792889"><ele>931.8571428571429</ele><time>2026-04-19T11:06:01.641Z</time></trkpt><trkpt lat="42.0220844" lon="13.6793311"><ele>932.5714285714286</ele><time>2026-04-19T11:06:08.671Z</time></trkpt><trkpt lat="42.0220345" lon="13.6793845"><ele>933.2857142857142</ele><time>2026-04-19T11:06:16.634Z</time></trkpt><trkpt lat="42.0219903" lon="13.6794456"><ele>933.9999999999999</ele><time>2026-04-19T11:07:53.614Z</time></trkpt><trkpt lat="42.0219521" lon="13.6795154"><ele>934.5714285714284</ele><time>2026-04-19T11:07:59.61Z</time></trkpt><trkpt lat="42.0219105" lon="13.6795956"><ele>935.1428571428571</ele><time>2026-04-19T11:08:06.614Z</time></trkpt><trkpt lat="42.0218649" lon="13.6796717"><ele>935.7142857142857</ele><time>2026-04-19T11:08:13.654Z</time></trkpt><trkpt lat="42.0218178" lon="13.6797462"><ele>936.2857142857142</ele><time>2026-04-19T11:08:21.616Z</time></trkpt><trkpt lat="42.0217638" lon="13.6797962"><ele>936.8571428571429</ele><time>2026-04-19T11:08:28.647Z</time></trkpt><trkpt lat="42.0217173" lon="13.6798615"><ele>937.4285714285714</ele><time>2026-04-19T11:08:57.626Z</time></trkpt><trkpt lat="42.0216943" lon="13.6799446"><ele>938.0</ele><time>2026-04-19T11:09:03.611Z</time></trkpt><trkpt lat="42.0216378" lon="13.6800044"><ele>939.4285714285714</ele><time>2026-04-19T11:09:10.635Z</time></trkpt><trkpt lat="42.0215884" lon="13.6800602"><ele>940.8571428571429</ele><time>2026-04-19T11:09:17.648Z</time></trkpt><trkpt lat="42.0215533" lon="13.6801376"><ele>942.2857142857142</ele><time>2026-04-19T11:09:25.611Z</time></trkpt><trkpt lat="42.0215186" lon="13.6802097"><ele>943.7142857142857</ele><time>2026-04-19T11:09:31.635Z</time></trkpt><trkpt lat="42.0214746" lon="13.6802824"><ele>945.1428571428571</ele><time>2026-04-19T11:09:38.682Z</time></trkpt><trkpt lat="42.0214334" lon="13.6803638"><ele>946.5714285714284</ele><time>2026-04-19T11:09:46.612Z</time></trkpt><trkpt lat="42.0213883" lon="13.6804495"><ele>947.9999999999999</ele><time>2026-04-19T11:10:02.626Z</time></trkpt><trkpt lat="42.0213654" lon="13.6805381"><ele>948.4285714285713</ele><time>2026-04-19T11:10:09.554Z</time></trkpt><trkpt lat="42.021324" lon="13.6806074"><ele>948.8571428571429</ele><time>2026-04-19T11:10:16.612Z</time></trkpt><trkpt lat="42.0212764" lon="13.6806727"><ele>949.2857142857142</ele><time>2026-04-19T11:10:25.61Z</time></trkpt><trkpt lat="42.0212313" lon="13.6807391"><ele>949.7142857142857</ele><time>2026-04-19T11:10:33.617Z</time></trkpt><trkpt lat="42.0211975" lon="13.6808166"><ele>950.1428571428571</ele><time>2026-04-19T11:10:41.609Z</time></trkpt><trkpt lat="42.0211614" lon="13.6808957"><ele>950.5714285714286</ele><time>2026-04-19T11:10:49.614Z</time></trkpt><trkpt lat="42.0211154" lon="13.6809536"><ele>951.0</ele><time>2026-04-19T11:10:57.614Z</time></trkpt><trkpt lat="42.0210796" lon="13.6810389"><ele>951.5714285714286</ele><time>2026-04-19T11:11:05.613Z</time></trkpt><trkpt lat="42.0210556" lon="13.6811289"><ele>952.1428571428571</ele><time>2026-04-19T11:11:13.613Z</time></trkpt><trkpt lat="42.0210022" lon="13.6811789"><ele>952.7142857142857</ele><time>2026-04-19T11:12:15.646Z</time></trkpt><trkpt lat="42.0209654" lon="13.681258"><ele>953.2857142857142</ele><time>2026-04-19T11:12:22.612Z</time></trkpt><trkpt lat="42.0209539" lon="13.6813426"><ele>953.8571428571429</ele><time>2026-04-19T11:12:28.627Z</time></trkpt><trkpt lat="42.0209206" lon="13.6814182"><ele>954.4285714285713</ele><time>2026-04-19T11:12:36.609Z</time></trkpt><trkpt lat="42.0208796" lon="13.6814837"><ele>954.9999999999999</ele><time>2026-04-19T11:12:43.619Z</time></trkpt><trkpt lat="42.0208544" lon="13.681564"><ele>954.9999999999999</ele><time>2026-04-19T11:12:50.607Z</time></trkpt><trkpt lat="42.0208374" lon="13.6816469"><ele>955.0</ele><time>2026-04-19T11:12:59.617Z</time></trkpt><trkpt lat="42.0208153" lon="13.6817285"><ele>954.9999999999999</ele><time>2026-04-19T11:13:09.612Z</time></trkpt><trkpt lat="42.020778" lon="13.6818007"><ele>954.9999999999999</ele><time>2026-04-19T11:13:35.64Z</time></trkpt><trkpt lat="42.0207436" lon="13.6818772"><ele>955.0</ele><time>2026-04-19T11:13:43.61Z</time></trkpt><trkpt lat="42.0206788" lon="13.6818373"><ele>954.9999999999999</ele><time>2026-04-19T11:13:52.644Z</time></trkpt><trkpt lat="42.0206229" lon="13.6817898"><ele>954.9999999999999</ele><time>2026-04-19T11:13:59.61Z</time></trkpt><trkpt lat="42.020632" lon="13.6818737"><ele>956.5714285714284</ele><time>2026-04-19T11:14:14.611Z</time></trkpt><trkpt lat="42.0206446" lon="13.6819687"><ele>958.1428571428571</ele><time>2026-04-19T11:14:37.566Z</time></trkpt><trkpt lat="42.0206238" lon="13.6820599"><ele>959.7142857142857</ele><time>2026-04-19T11:14:44.547Z</time></trkpt><trkpt lat="42.0206489" lon="13.6821474"><ele>961.2857142857142</ele><time>2026-04-19T11:14:51.61Z</time></trkpt><trkpt lat="42.0206725" lon="13.6822292"><ele>962.8571428571429</ele><time>2026-04-19T11:14:59.614Z</time></trkpt><trkpt lat="42.0206583" lon="13.6823147"><ele>964.4285714285714</ele><time>2026-04-19T11:15:16.612Z</time></trkpt><trkpt lat="42.0206336" lon="13.6823952"><ele>966.0</ele><time>2026-04-19T11:15:28.613Z</time></trkpt><trkpt lat="42.0206299" lon="13.6824818"><ele>966.0</ele><time>2026-04-19T11:16:51.665Z</time></trkpt><trkpt lat="42.0206298" lon="13.6825717"><ele>966.0</ele><time>2026-04-19T11:16:58.611Z</time></trkpt><trkpt lat="42.0206566" lon="13.6826502"><ele>966.0</ele><time>2026-04-19T11:17:05.565Z</time></trkpt><trkpt lat="42.0206467" lon="13.6827396"><ele>966.0</ele><time>2026-04-19T11:17:14.612Z</time></trkpt><trkpt lat="42.0206198" lon="13.6828354"><ele>966.0</ele><time>2026-04-19T11:17:40.612Z</time></trkpt><trkpt lat="42.0205956" lon="13.6829145"><ele>966.0</ele><time>2026-04-19T11:17:46.61Z</time></trkpt><trkpt lat="42.0205628" lon="13.6829933"><ele>966.0</ele><time>2026-04-19T11:17:53.626Z</time></trkpt><trkpt lat="42.0205304" lon="13.6830762"><ele>966.2857142857142</ele><time>2026-04-19T11:18:01.529Z</time></trkpt><trkpt lat="42.0205079" lon="13.6831647"><ele>966.5714285714286</ele><time>2026-04-19T11:18:09.59Z</time></trkpt><trkpt lat="42.0204858" lon="13.6832541"><ele>966.8571428571429</ele><time>2026-04-19T11:18:17.607Z</time></trkpt><trkpt lat="42.0204634" lon="13.6833405"><ele>967.1428571428571</ele><time>2026-04-19T11:18:24.573Z</time></trkpt><trkpt lat="42.0204343" lon="13.6834275"><ele>967.4285714285713</ele><time>2026-04-19T11:18:33.649Z</time></trkpt><trkpt lat="42.0204211" lon="13.6835228"><ele>967.7142857142857</ele><time>2026-04-19T11:19:31.614Z</time></trkpt><trkpt lat="42.0204026" lon="13.6836084"><ele>968.0</ele><time>2026-04-19T11:19:38.611Z</time></trkpt><trkpt lat="42.0203876" lon="13.6836966"><ele>969.5714285714286</ele><time>2026-04-19T11:19:46.621Z</time></trkpt><trkpt lat="42.0203468" lon="13.6837781"><ele>971.1428571428571</ele><time>2026-04-19T11:19:57.613Z</time></trkpt><trkpt lat="42.0203059" lon="13.6838503"><ele>972.7142857142857</ele><time>2026-04-19T11:20:06.643Z</time></trkpt><trkpt lat="42.0203521" lon="13.6839131"><ele>974.2857142857142</ele><time>2026-04-19T11:20:16.61Z</time></trkpt><trkpt lat="42.0204037" lon="13.6839623"><ele>975.8571428571429</ele><time>2026-04-19T11:20:35.621Z</time></trkpt><trkpt lat="42.0203385" lon="13.6839131"><ele>977.4285714285713</ele><time>2026-04-19T11:21:46.608Z</time></trkpt><trkpt lat="42.0202896" lon="13.683843"><ele>979.0</ele><time>2026-04-19T11:21:55.614Z</time></trkpt><trkpt lat="42.0202355" lon="13.6838951"><ele>979.0</ele><time>2026-04-19T11:24:43.608Z</time></trkpt><trkpt lat="42.0202977" lon="13.6839359"><ele>979.0</ele><time>2026-04-19T11:28:01.61Z</time></trkpt><trkpt lat="42.0203619" lon="13.6839335"><ele>979.0</ele><time>2026-04-19T11:28:08.611Z</time></trkpt><trkpt lat="42.0203421" lon="13.6840166"><ele>979.0</ele><time>2026-04-19T11:28:15.614Z</time></trkpt><trkpt lat="42.0203093" lon="13.6840913"><ele>979.0</ele><time>2026-04-19T11:28:22.608Z</time></trkpt><trkpt lat="42.0202956" lon="13.6841755"><ele>979.0</ele><time>2026-04-19T11:28:29.619Z</time></trkpt><trkpt lat="42.020258" lon="13.6842608"><ele>979.0</ele><time>2026-04-19T11:28:53.673Z</time></trkpt><trkpt lat="42.020193" lon="13.6842905"><ele>979.0</ele><time>2026-04-19T11:29:02.621Z</time></trkpt><trkpt lat="42.0201284" lon="13.6843258"><ele>979.0</ele><time>2026-04-19T11:29:20.63Z</time></trkpt><trkpt lat="42.0200723" lon="13.6843754"><ele>979.0</ele><time>2026-04-19T11:29:29.608Z</time></trkpt><trkpt lat="42.0200859" lon="13.6844657"><ele>979.0</ele><time>2026-04-19T11:33:12.609Z</time></trkpt><trkpt lat="42.020079" lon="13.6843781"><ele>979.0</ele><time>2026-04-19T11:33:59.609Z</time></trkpt><trkpt lat="42.0201425" lon="13.6843812"><ele>979.0</ele><time>2026-04-19T11:34:07.611Z</time></trkpt><trkpt lat="42.0202084" lon="13.6843627"><ele>979.0</ele><time>2026-04-19T11:34:19.609Z</time></trkpt><trkpt lat="42.0202739" lon="13.6843524"><ele>979.0</ele><time>2026-04-19T11:34:30.609Z</time></trkpt><trkpt lat="42.0203303" lon="13.6843943"><ele>979.0</ele><time>2026-04-19T11:34:40.61Z</time></trkpt><trkpt lat="42.020337" lon="13.6844849"><ele>979.0</ele><time>2026-04-19T11:34:47.608Z</time></trkpt><trkpt lat="42.0203163" lon="13.6845673"><ele>979.0</ele><time>2026-04-19T11:34:53.607Z</time></trkpt><trkpt lat="42.0203395" lon="13.6846476"><ele>979.0</ele><time>2026-04-19T11:35:04.609Z</time></trkpt><trkpt lat="42.0203712" lon="13.6845672"><ele>979.0</ele><time>2026-04-19T11:35:14.608Z</time></trkpt><trkpt lat="42.0204101" lon="13.6844958"><ele>979.0</ele><time>2026-04-19T11:35:29.609Z</time></trkpt><trkpt lat="42.0204558" lon="13.6844366"><ele>979.0</ele><time>2026-04-19T11:35:54.61Z</time></trkpt><trkpt lat="42.0205148" lon="13.6843904"><ele>979.0</ele><time>2026-04-19T11:36:03.534Z</time></trkpt><trkpt lat="42.0205792" lon="13.6843752"><ele>979.0</ele><time>2026-04-19T11:36:13.61Z</time></trkpt><trkpt lat="42.0206338" lon="13.6843089"><ele>979.0</ele><time>2026-04-19T11:36:55.605Z</time></trkpt><trkpt lat="42.0207033" lon="13.6843211"><ele>979.0</ele><time>2026-04-19T11:37:06.552Z</time></trkpt><trkpt lat="42.0207652" lon="13.6843021"><ele>979.0</ele><time>2026-04-19T11:37:48.552Z</time></trkpt><trkpt lat="42.0208208" lon="13.6842613"><ele>979.0</ele><time>2026-04-19T11:37:58.63Z</time></trkpt><trkpt lat="42.0208855" lon="13.6842686"><ele>976.8571428571429</ele><time>2026-04-19T11:38:10.589Z</time></trkpt><trkpt lat="42.0209194" lon="13.6843455"><ele>974.7142857142858</ele><time>2026-04-19T11:39:21.608Z</time></trkpt><trkpt lat="42.0209452" lon="13.6844301"><ele>972.5714285714287</ele><time>2026-04-19T11:39:56.605Z</time></trkpt><trkpt lat="42.0209634" lon="13.6845123"><ele>970.4285714285714</ele><time>2026-04-19T11:40:06.607Z</time></trkpt><trkpt lat="42.0209878" lon="13.6846071"><ele>968.2857142857144</ele><time>2026-04-19T11:40:20.609Z</time></trkpt><trkpt lat="42.0210258" lon="13.6846759"><ele>966.1428571428572</ele><time>2026-04-19T11:40:46.608Z</time></trkpt><trkpt lat="42.0210425" lon="13.6847615"><ele>964.0</ele><time>2026-04-19T11:40:58.609Z</time></trkpt><trkpt lat="42.021037" lon="13.6848536"><ele>962.8571428571429</ele><time>2026-04-19T11:41:22.605Z</time></trkpt><trkpt lat="42.0210604" lon="13.6849366"><ele>961.7142857142858</ele><time>2026-04-19T11:41:33.65Z</time></trkpt><trkpt lat="42.0210747" lon="13.6850271"><ele>960.5714285714287</ele><time>2026-04-19T11:41:58.605Z</time></trkpt><trkpt lat="42.0211073" lon="13.6851031"><ele>959.4285714285716</ele><time>2026-04-19T11:42:08.61Z</time></trkpt><trkpt lat="42.0211361" lon="13.6851816"><ele>958.2857142857143</ele><time>2026-04-19T11:42:20.609Z</time></trkpt><trkpt lat="42.0211585" lon="13.6852687"><ele>957.1428571428573</ele><time>2026-04-19T11:42:30.61Z</time></trkpt><trkpt lat="42.0211752" lon="13.6853527"><ele>956.0000000000001</ele><time>2026-04-19T11:42:42.608Z</time></trkpt><trkpt lat="42.0212202" lon="13.6854185"><ele>955.4285714285716</ele><time>2026-04-19T11:42:55.61Z</time></trkpt><trkpt lat="42.0212523" lon="13.6854954"><ele>954.8571428571429</ele><time>2026-04-19T11:43:10.61Z</time></trkpt><trkpt lat="42.0212947" lon="13.6855697"><ele>954.2857142857143</ele><time>2026-04-19T11:43:27.607Z</time></trkpt><trkpt lat="42.0213166" lon="13.6856522"><ele>953.7142857142858</ele><time>2026-04-19T11:43:36.605Z</time></trkpt><trkpt lat="42.0213621" lon="13.6857192"><ele>953.1428571428571</ele><time>2026-04-19T11:43:50.604Z</time></trkpt><trkpt lat="42.0213979" lon="13.6857921"><ele>952.5714285714286</ele><time>2026-04-19T11:43:59.609Z</time></trkpt><trkpt lat="42.0214382" lon="13.685862"><ele>952.0</ele><time>2026-04-19T11:44:08.611Z</time></trkpt><trkpt lat="42.0214582" lon="13.6859454"><ele>952.0</ele><time>2026-04-19T11:44:23.609Z</time></trkpt><trkpt lat="42.021504" lon="13.6860218"><ele>952.0</ele><time>2026-04-19T11:44:32.607Z</time></trkpt><trkpt lat="42.0215646" lon="13.6860862"><ele>952.0</ele><time>2026-04-19T11:44:52.605Z</time></trkpt><trkpt lat="42.0216303" lon="13.6860837"><ele>952.0</ele><time>2026-04-19T11:45:00.615Z</time></trkpt><trkpt lat="42.0216885" lon="13.686037"><ele>952.0</ele><time>2026-04-19T11:45:08.606Z</time></trkpt><trkpt lat="42.0217426" lon="13.6859904"><ele>952.0</ele><time>2026-04-19T11:45:17.619Z</time></trkpt><trkpt lat="42.0218086" lon="13.6859786"><ele>952.0</ele><time>2026-04-19T11:45:28.607Z</time></trkpt><trkpt lat="42.0218521" lon="13.6859164"><ele>948.0</ele><time>2026-04-19T11:45:38.647Z</time></trkpt><trkpt lat="42.0219084" lon="13.6858635"><ele>944.0</ele><time>2026-04-19T11:45:50.621Z</time></trkpt><trkpt lat="42.0219705" lon="13.6858304"><ele>940.0</ele><time>2026-04-19T11:46:01.605Z</time></trkpt><trkpt lat="42.0220173" lon="13.6857618"><ele>936.0</ele><time>2026-04-19T11:46:11.655Z</time></trkpt><trkpt lat="42.0220772" lon="13.6857179"><ele>932.0</ele><time>2026-04-19T11:46:23.622Z</time></trkpt><trkpt lat="42.0221448" lon="13.6857002"><ele>928.0</ele><time>2026-04-19T11:46:37.608Z</time></trkpt><trkpt lat="42.0222018" lon="13.6856638"><ele>924.0</ele><time>2026-04-19T11:46:47.608Z</time></trkpt><trkpt lat="42.0222632" lon="13.6856851"><ele>924.0</ele><time>2026-04-19T11:47:00.633Z</time></trkpt><trkpt lat="42.0222712" lon="13.6857768"><ele>924.0</ele><time>2026-04-19T11:47:09.609Z</time></trkpt><trkpt lat="42.0222953" lon="13.6858913"><ele>924.0</ele><time>2026-04-19T11:47:29.624Z</time></trkpt><trkpt lat="42.0223271" lon="13.6859648"><ele>924.0</ele><time>2026-04-19T11:47:45.607Z</time></trkpt><trkpt lat="42.0223139" lon="13.686056"><ele>924.0</ele><time>2026-04-19T11:48:08.589Z</time></trkpt><trkpt lat="42.0223262" lon="13.6861726"><ele>924.0</ele><time>2026-04-19T11:48:31.608Z</time></trkpt><trkpt lat="42.0223441" lon="13.686266"><ele>924.0</ele><time>2026-04-19T11:48:41.607Z</time></trkpt><trkpt lat="42.0223662" lon="13.6863539"><ele>923.6666666666666</ele><time>2026-04-19T11:49:02.605Z</time></trkpt><trkpt lat="42.0224313" lon="13.6864951"><ele>923.3333333333333</ele><time>2026-04-19T11:49:47.608Z</time></trkpt><trkpt lat="42.0224393" lon="13.6865814"><ele>923.0</ele><time>2026-04-19T11:49:56.618Z</time></trkpt><trkpt lat="42.0224366" lon="13.6866688"><ele>922.6666666666666</ele><time>2026-04-19T11:50:11.609Z</time></trkpt><trkpt lat="42.0224004" lon="13.6867478"><ele>922.3333333333333</ele><time>2026-04-19T11:50:26.595Z</time></trkpt><trkpt lat="42.0224181" lon="13.6868352"><ele>922.0</ele><time>2026-04-19T11:50:46.621Z</time></trkpt><trkpt lat="42.0224089" lon="13.6869214"><ele>919.8571428571429</ele><time>2026-04-19T11:51:03.624Z</time></trkpt><trkpt lat="42.0223858" lon="13.6870038"><ele>917.7142857142858</ele><time>2026-04-19T11:51:15.607Z</time></trkpt><trkpt lat="42.0224026" lon="13.6870952"><ele>915.5714285714287</ele><time>2026-04-19T11:51:27.515Z</time></trkpt><trkpt lat="42.0224378" lon="13.6871684"><ele>913.4285714285716</ele><time>2026-04-19T11:51:53.629Z</time></trkpt><trkpt lat="42.0224036" lon="13.687248"><ele>911.2857142857143</ele><time>2026-04-19T11:52:06.608Z</time></trkpt><trkpt lat="42.0223992" lon="13.6873419"><ele>909.1428571428573</ele><time>2026-04-19T11:52:39.607Z</time></trkpt><trkpt lat="42.0224572" lon="13.6873807"><ele>907.0000000000001</ele><time>2026-04-19T11:53:19.605Z</time></trkpt><trkpt lat="42.0225215" lon="13.6873994"><ele>902.2857142857144</ele><time>2026-04-19T11:53:30.573Z</time></trkpt><trkpt lat="42.0225333" lon="13.6873103"><ele>897.5714285714287</ele><time>2026-04-19T11:53:42.674Z</time></trkpt><trkpt lat="42.0225922" lon="13.6872803"><ele>892.8571428571429</ele><time>2026-04-19T11:53:48.449Z</time></trkpt><trkpt lat="42.0226547" lon="13.6872991"><ele>888.1428571428572</ele><time>2026-04-19T11:53:55.533Z</time></trkpt><trkpt lat="42.0226899" lon="13.6873749"><ele>883.4285714285716</ele><time>2026-04-19T11:54:02.514Z</time></trkpt><trkpt lat="42.0226563" lon="13.6874551"><ele>878.7142857142857</ele><time>2026-04-19T11:54:08.647Z</time></trkpt><trkpt lat="42.0227084" lon="13.6875075"><ele>874.0</ele><time>2026-04-19T11:54:18.607Z</time></trkpt><trkpt lat="42.0227669" lon="13.6875535"><ele>874.0</ele><time>2026-04-19T11:54:28.606Z</time></trkpt><trkpt lat="42.0227306" lon="13.6876396"><ele>874.0</ele><time>2026-04-19T11:55:14.652Z</time></trkpt><trkpt lat="42.022695" lon="13.6877175"><ele>874.0</ele><time>2026-04-19T11:55:20.607Z</time></trkpt><trkpt lat="42.022652" lon="13.6877887"><ele>874.0</ele><time>2026-04-19T11:55:28.636Z</time></trkpt><trkpt lat="42.0226204" lon="13.6878726"><ele>874.0</ele><time>2026-04-19T11:55:36.656Z</time></trkpt><trkpt lat="42.0225893" lon="13.6879525"><ele>874.0</ele><time>2026-04-19T11:55:43.636Z</time></trkpt><trkpt lat="42.0225669" lon="13.6880359"><ele>874.0</ele><time>2026-04-19T11:55:50.605Z</time></trkpt><trkpt lat="42.0225202" lon="13.688107"><ele>874.7142857142857</ele><time>2026-04-19T11:56:01.604Z</time></trkpt><trkpt lat="42.022498" lon="13.6881903"><ele>875.4285714285714</ele><time>2026-04-19T11:56:08.611Z</time></trkpt><trkpt lat="42.0224684" lon="13.6882759"><ele>876.1428571428571</ele><time>2026-04-19T11:56:16.633Z</time></trkpt><trkpt lat="42.0224199" lon="13.6883339"><ele>876.8571428571429</ele><time>2026-04-19T11:56:24.532Z</time></trkpt><trkpt lat="42.0224042" lon="13.6884268"><ele>877.5714285714287</ele><time>2026-04-19T11:56:33.632Z</time></trkpt><trkpt lat="42.0223624" lon="13.6884932"><ele>878.2857142857143</ele><time>2026-04-19T11:56:40.652Z</time></trkpt><trkpt lat="42.0223403" lon="13.6885726"><ele>879.0</ele><time>2026-04-19T11:56:47.618Z</time></trkpt><trkpt lat="42.0223061" lon="13.6886594"><ele>879.0</ele><time>2026-04-19T11:56:55.605Z</time></trkpt><trkpt lat="42.0222831" lon="13.6887504"><ele>879.0</ele><time>2026-04-19T11:57:07.625Z</time></trkpt><trkpt lat="42.0222689" lon="13.6888356"><ele>879.0</ele><time>2026-04-19T11:57:14.608Z</time></trkpt><trkpt lat="42.0222591" lon="13.6889331"><ele>879.0</ele><time>2026-04-19T11:57:21.626Z</time></trkpt><trkpt lat="42.0222451" lon="13.6890172"><ele>879.0</ele><time>2026-04-19T11:57:27.603Z</time></trkpt><trkpt lat="42.0222402" lon="13.689111"><ele>879.0</ele><time>2026-04-19T11:57:33.633Z</time></trkpt><trkpt lat="42.0222551" lon="13.6892054"><ele>879.0</ele><time>2026-04-19T11:57:40.673Z</time></trkpt><trkpt lat="42.0222546" lon="13.6892963"><ele>879.0</ele><time>2026-04-19T11:57:47.606Z</time></trkpt><trkpt lat="42.0222295" lon="13.6891976"><ele>879.0</ele><time>2026-04-19T11:58:20.607Z</time></trkpt><trkpt lat="42.0222822" lon="13.6891177"><ele>879.0</ele><time>2026-04-19T11:58:48.554Z</time></trkpt><trkpt lat="42.0222519" lon="13.6890347"><ele>879.0</ele><time>2026-04-19T11:58:53.603Z</time></trkpt><trkpt lat="42.0222538" lon="13.6889495"><ele>879.0</ele><time>2026-04-19T11:58:58.603Z</time></trkpt><trkpt lat="42.0222845" lon="13.6888734"><ele>879.0</ele><time>2026-04-19T11:59:03.605Z</time></trkpt><trkpt lat="42.0222786" lon="13.6887854"><ele>879.0</ele><time>2026-04-19T11:59:12.608Z</time></trkpt><trkpt lat="42.0222965" lon="13.6886956"><ele>879.0</ele><time>2026-04-19T11:59:16.588Z</time></trkpt><trkpt lat="42.0223273" lon="13.6886105"><ele>879.0</ele><time>2026-04-19T11:59:22.655Z</time></trkpt><trkpt lat="42.0223586" lon="13.688535"><ele>879.0</ele><time>2026-04-19T11:59:28.607Z</time></trkpt><trkpt lat="42.022404" lon="13.6884628"><ele>879.0</ele><time>2026-04-19T11:59:35.607Z</time></trkpt><trkpt lat="42.0224222" lon="13.688372"><ele>879.0</ele><time>2026-04-19T11:59:42.649Z</time></trkpt><trkpt lat="42.022444" lon="13.6882896"><ele>879.0</ele><time>2026-04-19T11:59:50.604Z</time></trkpt><trkpt lat="42.022451" lon="13.6882046"><ele>879.0</ele><time>2026-04-19T11:59:57.605Z</time></trkpt><trkpt lat="42.022484" lon="13.6881195"><ele>878.2857142857143</ele><time>2026-04-19T12:00:05.632Z</time></trkpt><trkpt lat="42.0225117" lon="13.6880399"><ele>877.5714285714287</ele><time>2026-04-19T12:00:14.606Z</time></trkpt><trkpt lat="42.0225582" lon="13.687977"><ele>876.8571428571429</ele><time>2026-04-19T12:00:22.635Z</time></trkpt><trkpt lat="42.0225634" lon="13.6878852"><ele>876.1428571428571</ele><time>2026-04-19T12:00:57.607Z</time></trkpt><trkpt lat="42.0226087" lon="13.6878121"><ele>875.4285714285714</ele><time>2026-04-19T12:01:04.603Z</time></trkpt><trkpt lat="42.0226399" lon="13.6877316"><ele>874.7142857142857</ele><time>2026-04-19T12:01:12.606Z</time></trkpt><trkpt lat="42.0226809" lon="13.6876531"><ele>874.0</ele><time>2026-04-19T12:01:20.604Z</time></trkpt><trkpt lat="42.0227315" lon="13.6876015"><ele>874.0</ele><time>2026-04-19T12:01:27.632Z</time></trkpt><trkpt lat="42.0227926" lon="13.6876519"><ele>874.0</ele><time>2026-04-19T12:01:46.534Z</time></trkpt><trkpt lat="42.0228259" lon="13.6877319"><ele>874.0</ele><time>2026-04-19T12:01:55.606Z</time></trkpt><trkpt lat="42.0228331" lon="13.687831"><ele>874.0</ele><time>2026-04-19T12:02:29.61Z</time></trkpt><trkpt lat="42.0228465" lon="13.6879261"><ele>874.0</ele><time>2026-04-19T12:02:37.655Z</time></trkpt><trkpt lat="42.0228329" lon="13.6880173"><ele>874.0</ele><time>2026-04-19T12:02:45.656Z</time></trkpt><trkpt lat="42.022799" lon="13.6880917"><ele>874.0</ele><time>2026-04-19T12:02:54.607Z</time></trkpt><trkpt lat="42.0228347" lon="13.6881626"><ele>871.7142857142857</ele><time>2026-04-19T12:03:02.611Z</time></trkpt><trkpt lat="42.0228877" lon="13.6882099"><ele>869.4285714285714</ele><time>2026-04-19T12:03:13.606Z</time></trkpt><trkpt lat="42.0229433" lon="13.6882584"><ele>867.1428571428571</ele><time>2026-04-19T12:03:25.605Z</time></trkpt><trkpt lat="42.0229828" lon="13.6883291"><ele>864.8571428571429</ele><time>2026-04-19T12:04:05.605Z</time></trkpt><trkpt lat="42.0230316" lon="13.6883883"><ele>862.5714285714287</ele><time>2026-04-19T12:04:20.605Z</time></trkpt><trkpt lat="42.0230023" lon="13.6884723"><ele>860.2857142857143</ele><time>2026-04-19T12:04:28.637Z</time></trkpt><trkpt lat="42.0229997" lon="13.6883871"><ele>858.0</ele><time>2026-04-19T12:04:51.611Z</time></trkpt><trkpt lat="42.0229676" lon="13.6884626"><ele>858.0</ele><time>2026-04-19T12:05:11.613Z</time></trkpt><trkpt lat="42.0229271" lon="13.6885347"><ele>858.0</ele><time>2026-04-19T12:05:34.638Z</time></trkpt><trkpt lat="42.0229337" lon="13.6886243"><ele>858.0</ele><time>2026-04-19T12:06:14.607Z</time></trkpt><trkpt lat="42.0229021" lon="13.6887061"><ele>858.0</ele><time>2026-04-19T12:06:25.577Z</time></trkpt><trkpt lat="42.022874" lon="13.6887823"><ele>858.0</ele><time>2026-04-19T12:06:41.604Z</time></trkpt><trkpt lat="42.0229142" lon="13.6888513"><ele>858.0</ele><time>2026-04-19T12:06:53.603Z</time></trkpt><trkpt lat="42.0229475" lon="13.688931"><ele>858.0</ele><time>2026-04-19T12:07:06.603Z</time></trkpt><trkpt lat="42.0229185" lon="13.6890172"><ele>856.7142857142858</ele><time>2026-04-19T12:07:21.603Z</time></trkpt><trkpt lat="42.0229045" lon="13.6891001"><ele>855.4285714285714</ele><time>2026-04-19T12:07:29.606Z</time></trkpt><trkpt lat="42.0228888" lon="13.6891858"><ele>854.1428571428571</ele><time>2026-04-19T12:07:39.611Z</time></trkpt><trkpt lat="42.0229283" lon="13.6892653"><ele>852.8571428571429</ele><time>2026-04-19T12:07:51.612Z</time></trkpt><trkpt lat="42.022957" lon="13.6893474"><ele>851.5714285714286</ele><time>2026-04-19T12:08:01.631Z</time></trkpt><trkpt lat="42.0230156" lon="13.6893855"><ele>850.2857142857143</ele><time>2026-04-19T12:08:11.603Z</time></trkpt><trkpt lat="42.0230839" lon="13.6893689"><ele>849.0</ele><time>2026-04-19T12:08:19.641Z</time></trkpt><trkpt lat="42.0231124" lon="13.6894491"><ele>848.2857142857143</ele><time>2026-04-19T12:08:33.625Z</time></trkpt><trkpt lat="42.0231518" lon="13.68952"><ele>847.5714285714286</ele><time>2026-04-19T12:08:51.635Z</time></trkpt><trkpt lat="42.0231017" lon="13.6895775"><ele>846.8571428571429</ele><time>2026-04-19T12:08:57.546Z</time></trkpt><trkpt lat="42.0231675" lon="13.6895852"><ele>846.1428571428571</ele><time>2026-04-19T12:09:08.638Z</time></trkpt><trkpt lat="42.023224" lon="13.6895322"><ele>845.4285714285714</ele><time>2026-04-19T12:09:15.608Z</time></trkpt><trkpt lat="42.0232624" lon="13.6894583"><ele>844.7142857142858</ele><time>2026-04-19T12:09:21.617Z</time></trkpt><trkpt lat="42.0232273" lon="13.6895343"><ele>844.0</ele><time>2026-04-19T12:09:41.605Z</time></trkpt><trkpt lat="42.0232926" lon="13.6895325"><ele>844.0</ele><time>2026-04-19T12:09:57.635Z</time></trkpt><trkpt lat="42.0233085" lon="13.6894361"><ele>844.0</ele><time>2026-04-19T12:10:51.603Z</time></trkpt><trkpt lat="42.0233036" lon="13.6893478"><ele>844.0</ele><time>2026-04-19T12:10:59.505Z</time></trkpt><trkpt lat="42.0233407" lon="13.6892678"><ele>844.0</ele><time>2026-04-19T12:11:07.604Z</time></trkpt><trkpt lat="42.023398" lon="13.6893206"><ele>844.0</ele><time>2026-04-19T12:11:14.604Z</time></trkpt><trkpt lat="42.0234389" lon="13.6893905"><ele>844.0</ele><time>2026-04-19T12:11:24.605Z</time></trkpt><trkpt lat="42.0234887" lon="13.6894475"><ele>844.0</ele><time>2026-04-19T12:11:38.649Z</time></trkpt><trkpt lat="42.0235502" lon="13.6894166"><ele>841.4285714285714</ele><time>2026-04-19T12:11:55.651Z</time></trkpt><trkpt lat="42.0236" lon="13.6893546"><ele>838.8571428571429</ele><time>2026-04-19T12:12:03.605Z</time></trkpt><trkpt lat="42.0236484" lon="13.6892962"><ele>836.2857142857142</ele><time>2026-04-19T12:12:12.572Z</time></trkpt><trkpt lat="42.0236917" lon="13.6893672"><ele>833.7142857142858</ele><time>2026-04-19T12:12:27.631Z</time></trkpt><trkpt lat="42.023756" lon="13.6894046"><ele>831.1428571428571</ele><time>2026-04-19T12:12:43.572Z</time></trkpt><trkpt lat="42.0237432" lon="13.6894936"><ele>828.5714285714286</ele><time>2026-04-19T12:12:51.606Z</time></trkpt><trkpt lat="42.0237969" lon="13.6895395"><ele>826.0</ele><time>2026-04-19T12:13:01.568Z</time></trkpt><trkpt lat="42.0238571" lon="13.6895134"><ele>826.0</ele><time>2026-04-19T12:13:16.603Z</time></trkpt><trkpt lat="42.0239025" lon="13.6894546"><ele>826.0</ele><time>2026-04-19T12:13:24.602Z</time></trkpt><trkpt lat="42.0239174" lon="13.6893687"><ele>826.0</ele><time>2026-04-19T12:13:34.626Z</time></trkpt><trkpt lat="42.0239786" lon="13.6894111"><ele>826.0</ele><time>2026-04-19T12:13:44.611Z</time></trkpt><trkpt lat="42.0240394" lon="13.6894607"><ele>826.0</ele><time>2026-04-19T12:13:53.605Z</time></trkpt><trkpt lat="42.0241009" lon="13.6894232"><ele>826.0</ele><time>2026-04-19T12:14:02.621Z</time></trkpt><trkpt lat="42.0241331" lon="13.6893432"><ele>826.0</ele><time>2026-04-19T12:14:09.606Z</time></trkpt><trkpt lat="42.0242031" lon="13.6893443"><ele>821.8571428571429</ele><time>2026-04-19T12:14:16.606Z</time></trkpt><trkpt lat="42.0242568" lon="13.6893894"><ele>817.7142857142858</ele><time>2026-04-19T12:14:22.629Z</time></trkpt><trkpt lat="42.0243228" lon="13.6894041"><ele>813.5714285714286</ele><time>2026-04-19T12:14:30.525Z</time></trkpt><trkpt lat="42.0243877" lon="13.6893762"><ele>809.4285714285714</ele><time>2026-04-19T12:14:38.679Z</time></trkpt><trkpt lat="42.0244546" lon="13.6893673"><ele>805.2857142857143</ele><time>2026-04-19T12:14:49.606Z</time></trkpt><trkpt lat="42.0244762" lon="13.6892809"><ele>801.1428571428571</ele><time>2026-04-19T12:14:55.604Z</time></trkpt><trkpt lat="42.0244966" lon="13.6891949"><ele>797.0</ele><time>2026-04-19T12:15:03.603Z</time></trkpt><trkpt lat="42.0245361" lon="13.6891148"><ele>797.0</ele><time>2026-04-19T12:15:13.568Z</time></trkpt><trkpt lat="42.0245637" lon="13.6890363"><ele>797.0</ele><time>2026-04-19T12:15:19.573Z</time></trkpt><trkpt lat="42.0245838" lon="13.6889534"><ele>797.0</ele><time>2026-04-19T12:15:26.631Z</time></trkpt><trkpt lat="42.0246318" lon="13.6888975"><ele>797.0</ele><time>2026-04-19T12:15:33.527Z</time></trkpt><trkpt lat="42.0246862" lon="13.6888431"><ele>797.0</ele><time>2026-04-19T12:15:42.531Z</time></trkpt><trkpt lat="42.0247211" lon="13.6887635"><ele>797.0</ele><time>2026-04-19T12:15:50.604Z</time></trkpt><trkpt lat="42.0247736" lon="13.6887084"><ele>797.0</ele><time>2026-04-19T12:16:12.61Z</time></trkpt><trkpt lat="42.0248344" lon="13.6886724"><ele>797.0</ele><time>2026-04-19T12:16:23.652Z</time></trkpt><trkpt lat="42.0248993" lon="13.6886965"><ele>797.0</ele><time>2026-04-19T12:16:35.605Z</time></trkpt><trkpt lat="42.0249497" lon="13.6887534"><ele>797.0</ele><time>2026-04-19T12:16:44.605Z</time></trkpt><trkpt lat="42.0250022" lon="13.6888057"><ele>797.0</ele><time>2026-04-19T12:16:52.605Z</time></trkpt><trkpt lat="42.0250747" lon="13.6888111"><ele>797.0</ele><time>2026-04-19T12:17:01.606Z</time></trkpt><trkpt lat="42.0251073" lon="13.6887184"><ele>797.0</ele><time>2026-04-19T12:17:07.642Z</time></trkpt><trkpt lat="42.0250841" lon="13.6886345"><ele>797.0</ele><time>2026-04-19T12:17:12.59Z</time></trkpt><trkpt lat="42.025075" lon="13.688541"><ele>794.5714285714286</ele><time>2026-04-19T12:17:18.615Z</time></trkpt><trkpt lat="42.0250761" lon="13.6884506"><ele>792.1428571428572</ele><time>2026-04-19T12:17:25.603Z</time></trkpt><trkpt lat="42.0250846" lon="13.6883551"><ele>789.7142857142858</ele><time>2026-04-19T12:17:32.604Z</time></trkpt><trkpt lat="42.0250959" lon="13.6882693"><ele>787.2857142857142</ele><time>2026-04-19T12:17:38.525Z</time></trkpt><trkpt lat="42.0251018" lon="13.6881818"><ele>784.8571428571429</ele><time>2026-04-19T12:17:44.591Z</time></trkpt><trkpt lat="42.025099" lon="13.6880933"><ele>782.4285714285714</ele><time>2026-04-19T12:17:50.603Z</time></trkpt><trkpt lat="42.0251164" lon="13.6880032"><ele>780.0</ele><time>2026-04-19T12:17:57.602Z</time></trkpt><trkpt lat="42.025132" lon="13.6879207"><ele>780.0</ele><time>2026-04-19T12:18:05.609Z</time></trkpt><trkpt lat="42.0251373" lon="13.6878323"><ele>780.0</ele><time>2026-04-19T12:18:16.602Z</time></trkpt><trkpt lat="42.0251339" lon="13.6877468"><ele>780.0</ele><time>2026-04-19T12:18:21.525Z</time></trkpt><trkpt lat="42.0251252" lon="13.6876603"><ele>780.0</ele><time>2026-04-19T12:18:35.602Z</time></trkpt><trkpt lat="42.0251125" lon="13.6875763"><ele>780.0</ele><time>2026-04-19T12:18:44.631Z</time></trkpt><trkpt lat="42.0251225" lon="13.6874824"><ele>780.0</ele><time>2026-04-19T12:18:50.512Z</time></trkpt><trkpt lat="42.0251404" lon="13.6873975"><ele>780.0</ele><time>2026-04-19T12:18:56.604Z</time></trkpt><trkpt lat="42.0251513" lon="13.687306"><ele>780.4285714285714</ele><time>2026-04-19T12:19:03.551Z</time></trkpt><trkpt lat="42.0251531" lon="13.6872183"><ele>780.8571428571429</ele><time>2026-04-19T12:19:10.602Z</time></trkpt><trkpt lat="42.0251441" lon="13.687125"><ele>781.2857142857142</ele><time>2026-04-19T12:19:17.631Z</time></trkpt><trkpt lat="42.0251508" lon="13.6870331"><ele>781.7142857142858</ele><time>2026-04-19T12:19:24.604Z</time></trkpt><trkpt lat="42.025175" lon="13.6869518"><ele>782.1428571428572</ele><time>2026-04-19T12:19:30.609Z</time></trkpt><trkpt lat="42.0252102" lon="13.6868677"><ele>782.5714285714286</ele><time>2026-04-19T12:19:37.607Z</time></trkpt><trkpt lat="42.0252398" lon="13.6867851"><ele>783.0</ele><time>2026-04-19T12:19:44.605Z</time></trkpt><trkpt lat="42.0253059" lon="13.6867497"><ele>783.7142857142857</ele><time>2026-04-19T12:19:52.644Z</time></trkpt><trkpt lat="42.0252548" lon="13.6866936"><ele>784.4285714285714</ele><time>2026-04-19T12:20:20.604Z</time></trkpt><trkpt lat="42.0252228" lon="13.6866181"><ele>785.1428571428571</ele><time>2026-04-19T12:20:32.603Z</time></trkpt><trkpt lat="42.0252557" lon="13.6865313"><ele>785.8571428571429</ele><time>2026-04-19T12:20:39.628Z</time></trkpt><trkpt lat="42.0252682" lon="13.6864375"><ele>786.5714285714287</ele><time>2026-04-19T12:20:46.605Z</time></trkpt><trkpt lat="42.0252781" lon="13.6863502"><ele>787.2857142857143</ele><time>2026-04-19T12:20:53.587Z</time></trkpt><trkpt lat="42.0252916" lon="13.686257"><ele>788.0</ele><time>2026-04-19T12:21:16.589Z</time></trkpt><trkpt lat="42.0252956" lon="13.6861651"><ele>789.0</ele><time>2026-04-19T12:21:22.6Z</time></trkpt><trkpt lat="42.0252956" lon="13.6860767"><ele>790.0</ele><time>2026-04-19T12:21:28.627Z</time></trkpt><trkpt lat="42.0253463" lon="13.6860014"><ele>791.0</ele><time>2026-04-19T12:22:07.604Z</time></trkpt><trkpt lat="42.0253632" lon="13.6859062"><ele>792.0</ele><time>2026-04-19T12:22:12.573Z</time></trkpt><trkpt lat="42.0253752" lon="13.6858226"><ele>793.0</ele><time>2026-04-19T12:22:17.629Z</time></trkpt><trkpt lat="42.0253909" lon="13.6857319"><ele>794.0</ele><time>2026-04-19T12:22:23.604Z</time></trkpt><trkpt lat="42.0254082" lon="13.6856497"><ele>795.0</ele><time>2026-04-19T12:22:29.601Z</time></trkpt><trkpt lat="42.0254167" lon="13.685559"><ele>795.0</ele><time>2026-04-19T12:22:35.674Z</time></trkpt><trkpt lat="42.025434" lon="13.6854764"><ele>795.0</ele><time>2026-04-19T12:22:42.603Z</time></trkpt><trkpt lat="42.0254675" lon="13.6853916"><ele>795.0</ele><time>2026-04-19T12:22:49.624Z</time></trkpt><trkpt lat="42.0255041" lon="13.6853202"><ele>795.0</ele><time>2026-04-19T12:23:02.603Z</time></trkpt><trkpt lat="42.0255447" lon="13.685401"><ele>795.0</ele><time>2026-04-19T12:23:27.602Z</time></trkpt><trkpt lat="42.0255761" lon="13.6854746"><ele>795.0</ele><time>2026-04-19T12:23:47.6Z</time></trkpt><trkpt lat="42.0255404" lon="13.6853908"><ele>795.0</ele><time>2026-04-19T12:25:42.605Z</time></trkpt><trkpt lat="42.0255281" lon="13.6853025"><ele>795.0</ele><time>2026-04-19T12:25:51.605Z</time></trkpt><trkpt lat="42.025534" lon="13.6852064"><ele>795.0</ele><time>2026-04-19T12:25:58.606Z</time></trkpt><trkpt lat="42.0255804" lon="13.6852791"><ele>795.0</ele><time>2026-04-19T12:26:11.595Z</time></trkpt><trkpt lat="42.025588" lon="13.6851414"><ele>795.0</ele><time>2026-04-19T12:26:12.601Z</time></trkpt><trkpt lat="42.0255978" lon="13.6850298"><ele>795.0</ele><time>2026-04-19T12:26:14.604Z</time></trkpt><trkpt lat="42.0256049" lon="13.6849442"><ele>795.0</ele><time>2026-04-19T12:26:19.629Z</time></trkpt><trkpt lat="42.0256322" lon="13.6848564"><ele>796.2857142857143</ele><time>2026-04-19T12:26:27.599Z</time></trkpt><trkpt lat="42.0256563" lon="13.6847628"><ele>797.5714285714287</ele><time>2026-04-19T12:26:34.621Z</time></trkpt><trkpt lat="42.0256549" lon="13.6846706"><ele>798.8571428571429</ele><time>2026-04-19T12:26:57.605Z</time></trkpt><trkpt lat="42.0257044" lon="13.6846024"><ele>800.1428571428571</ele><time>2026-04-19T12:27:03.599Z</time></trkpt><trkpt lat="42.0257407" lon="13.684528"><ele>801.4285714285714</ele><time>2026-04-19T12:27:09.601Z</time></trkpt><trkpt lat="42.0257729" lon="13.6844508"><ele>802.7142857142857</ele><time>2026-04-19T12:27:15.604Z</time></trkpt><trkpt lat="42.0258132" lon="13.6843787"><ele>804.0</ele><time>2026-04-19T12:27:21.612Z</time></trkpt><trkpt lat="42.0258622" lon="13.6843154"><ele>800.2857142857142</ele><time>2026-04-19T12:27:27.601Z</time></trkpt><trkpt lat="42.0259285" lon="13.6842917"><ele>796.5714285714287</ele><time>2026-04-19T12:27:50.605Z</time></trkpt><trkpt lat="42.0259385" lon="13.6843771"><ele>792.8571428571429</ele><time>2026-04-19T12:28:04.601Z</time></trkpt><trkpt lat="42.0258923" lon="13.6843178"><ele>789.1428571428571</ele><time>2026-04-19T12:29:46.514Z</time></trkpt><trkpt lat="42.0258846" lon="13.6842277"><ele>785.4285714285713</ele><time>2026-04-19T12:29:55.626Z</time></trkpt><trkpt lat="42.0259129" lon="13.6841401"><ele>781.7142857142858</ele><time>2026-04-19T12:30:07.602Z</time></trkpt><trkpt lat="42.0259046" lon="13.6840434"><ele>778.0</ele><time>2026-04-19T12:30:13.639Z</time></trkpt><trkpt lat="42.0259117" lon="13.6839455"><ele>778.0</ele><time>2026-04-19T12:30:20.603Z</time></trkpt><trkpt lat="42.0259769" lon="13.6839622"><ele>778.0</ele><time>2026-04-19T12:30:48.604Z</time></trkpt><trkpt lat="42.0260237" lon="13.6839031"><ele>778.0</ele><time>2026-04-19T12:31:59.608Z</time></trkpt><trkpt lat="42.0259543" lon="13.6838918"><ele>778.0</ele><time>2026-04-19T12:37:54.599Z</time></trkpt><trkpt lat="42.0259406" lon="13.6837997"><ele>778.0</ele><time>2026-04-19T12:38:35.607Z</time></trkpt><trkpt lat="42.0258986" lon="13.6837363"><ele>778.0</ele><time>2026-04-19T12:38:45.607Z</time></trkpt><trkpt lat="42.0258485" lon="13.6836781"><ele>778.0</ele><time>2026-04-19T12:38:51.606Z</time></trkpt><trkpt lat="42.0258741" lon="13.6835491"><ele>778.4285714285714</ele><time>2026-04-19T12:40:10.6Z</time></trkpt><trkpt lat="42.0258341" lon="13.6834832"><ele>778.8571428571428</ele><time>2026-04-19T12:41:17.6Z</time></trkpt><trkpt lat="42.0258446" lon="13.6833934"><ele>779.2857142857142</ele><time>2026-04-19T12:41:26.598Z</time></trkpt><trkpt lat="42.0258689" lon="13.6833036"><ele>779.7142857142858</ele><time>2026-04-19T12:41:36.601Z</time></trkpt><trkpt lat="42.0258784" lon="13.6832149"><ele>780.1428571428571</ele><time>2026-04-19T12:41:44.597Z</time></trkpt><trkpt lat="42.0258973" lon="13.6831336"><ele>780.5714285714286</ele><time>2026-04-19T12:41:52.597Z</time></trkpt><trkpt lat="42.0259158" lon="13.683041"><ele>781.0</ele><time>2026-04-19T12:42:09.601Z</time></trkpt><trkpt lat="42.0258951" lon="13.6829569"><ele>780.9999999999999</ele><time>2026-04-19T12:42:18.6Z</time></trkpt><trkpt lat="42.0259087" lon="13.6828732"><ele>781.0</ele><time>2026-04-19T12:42:24.601Z</time></trkpt><trkpt lat="42.0259001" lon="13.6827599"><ele>781.0</ele><time>2026-04-19T12:42:34.508Z</time></trkpt><trkpt lat="42.025909" lon="13.6828771"><ele>781.0</ele><time>2026-04-19T12:43:08.596Z</time></trkpt><trkpt lat="42.0258773" lon="13.6829596"><ele>780.9999999999999</ele><time>2026-04-19T12:43:13.599Z</time></trkpt><trkpt lat="42.0259369" lon="13.6828935"><ele>781.0</ele><time>2026-04-19T12:43:52.598Z</time></trkpt><trkpt lat="42.025983" lon="13.6828222"><ele>783.0</ele><time>2026-04-19T12:43:58.597Z</time></trkpt><trkpt lat="42.0260419" lon="13.6827562"><ele>785.0</ele><time>2026-04-19T12:44:06.591Z</time></trkpt><trkpt lat="42.0260902" lon="13.6826891"><ele>787.0</ele><time>2026-04-19T12:44:12.607Z</time></trkpt><trkpt lat="42.0261198" lon="13.6826058"><ele>789.0</ele><time>2026-04-19T12:44:19.533Z</time></trkpt><trkpt lat="42.0261786" lon="13.6825504"><ele>791.0</ele><time>2026-04-19T12:44:28.601Z</time></trkpt><trkpt lat="42.0262213" lon="13.6824872"><ele>793.0</ele><time>2026-04-19T12:44:38.624Z</time></trkpt><trkpt lat="42.0262323" lon="13.6824009"><ele>795.0</ele><time>2026-04-19T12:44:57.602Z</time></trkpt><trkpt lat="42.0262913" lon="13.6823531"><ele>795.0</ele><time>2026-04-19T12:45:10.621Z</time></trkpt><trkpt lat="42.0263357" lon="13.6822479"><ele>795.0</ele><time>2026-04-19T12:45:32.598Z</time></trkpt><trkpt lat="42.0263771" lon="13.6821822"><ele>795.0</ele><time>2026-04-19T12:45:38.6Z</time></trkpt><trkpt lat="42.0264251" lon="13.6821088"><ele>795.0</ele><time>2026-04-19T12:45:44.625Z</time></trkpt><trkpt lat="42.0264704" lon="13.6820328"><ele>795.0</ele><time>2026-04-19T12:45:50.596Z</time></trkpt><trkpt lat="42.0263964" lon="13.6820488"><ele>795.0</ele><time>2026-04-19T12:45:56.606Z</time></trkpt><trkpt lat="42.0263944" lon="13.6819527"><ele>795.0</ele><time>2026-04-19T12:46:10.6Z</time></trkpt><trkpt lat="42.0264152" lon="13.6818657"><ele>797.2857142857143</ele><time>2026-04-19T12:46:16.535Z</time></trkpt><trkpt lat="42.0264601" lon="13.6817909"><ele>799.5714285714287</ele><time>2026-04-19T12:46:22.602Z</time></trkpt><trkpt lat="42.026501" lon="13.6817092"><ele>801.8571428571429</ele><time>2026-04-19T12:46:29.609Z</time></trkpt><trkpt lat="42.0265439" lon="13.6816454"><ele>804.1428571428571</ele><time>2026-04-19T12:46:41.599Z</time></trkpt><trkpt lat="42.026586" lon="13.6815726"><ele>806.4285714285714</ele><time>2026-04-19T12:46:46.614Z</time></trkpt><trkpt lat="42.0266297" lon="13.6815071"><ele>808.7142857142857</ele><time>2026-04-19T12:46:51.599Z</time></trkpt><trkpt lat="42.0266944" lon="13.6814816"><ele>811.0</ele><time>2026-04-19T12:47:00.615Z</time></trkpt><trkpt lat="42.026724" lon="13.6814054"><ele>806.7142857142857</ele><time>2026-04-19T12:47:05.63Z</time></trkpt><trkpt lat="42.0267342" lon="13.6813058"><ele>802.4285714285714</ele><time>2026-04-19T12:47:11.598Z</time></trkpt><trkpt lat="42.0267275" lon="13.6812115"><ele>798.1428571428571</ele><time>2026-04-19T12:47:17.604Z</time></trkpt><trkpt lat="42.0267365" lon="13.6811253"><ele>793.8571428571429</ele><time>2026-04-19T12:47:23.599Z</time></trkpt><trkpt lat="42.0267513" lon="13.6810368"><ele>789.5714285714287</ele><time>2026-04-19T12:47:34.61Z</time></trkpt><trkpt lat="42.0268022" lon="13.6809824"><ele>785.2857142857143</ele><time>2026-04-19T12:47:39.574Z</time></trkpt><trkpt lat="42.0268421" lon="13.6809098"><ele>781.0</ele><time>2026-04-19T12:47:45.591Z</time></trkpt><trkpt lat="42.0268637" lon="13.6808171"><ele>781.0</ele><time>2026-04-19T12:47:51.613Z</time></trkpt><trkpt lat="42.0268779" lon="13.6807332"><ele>781.0</ele><time>2026-04-19T12:47:57.599Z</time></trkpt><trkpt lat="42.0268993" lon="13.680649"><ele>781.0</ele><time>2026-04-19T12:48:03.601Z</time></trkpt><trkpt lat="42.0269063" lon="13.6805484"><ele>781.0</ele><time>2026-04-19T12:48:10.63Z</time></trkpt><trkpt lat="42.0269338" lon="13.6804695"><ele>781.0</ele><time>2026-04-19T12:48:16.6Z</time></trkpt><trkpt lat="42.0269508" lon="13.6803818"><ele>781.0</ele><time>2026-04-19T12:48:22.603Z</time></trkpt><trkpt lat="42.0269698" lon="13.6802904"><ele>781.0</ele><time>2026-04-19T12:48:29.599Z</time></trkpt><trkpt lat="42.0269886" lon="13.6801989"><ele>782.8571428571429</ele><time>2026-04-19T12:48:36.518Z</time></trkpt><trkpt lat="42.0270324" lon="13.6801354"><ele>784.7142857142858</ele><time>2026-04-19T12:48:42.555Z</time></trkpt><trkpt lat="42.0270413" lon="13.6802215"><ele>786.5714285714286</ele><time>2026-04-19T13:38:09.596Z</time></trkpt><trkpt lat="42.0270209" lon="13.6800978"><ele>788.4285714285714</ele><time>2026-04-19T13:43:41.594Z</time></trkpt><trkpt lat="42.0270549" lon="13.6800208"><ele>790.2857142857142</ele><time>2026-04-19T13:44:08.596Z</time></trkpt><trkpt lat="42.0270711" lon="13.6799378"><ele>792.1428571428571</ele><time>2026-04-19T13:44:19.597Z</time></trkpt><trkpt lat="42.0270662" lon="13.6798532"><ele>794.0</ele><time>2026-04-19T13:44:32.597Z</time></trkpt><trkpt lat="42.0270743" lon="13.679765"><ele>794.0</ele><time>2026-04-19T13:44:45.599Z</time></trkpt><trkpt lat="42.0271289" lon="13.6797126"><ele>794.0</ele><time>2026-04-19T13:45:27.595Z</time></trkpt><trkpt lat="42.0271344" lon="13.6796228"><ele>794.0</ele><time>2026-04-19T13:45:35.596Z</time></trkpt><trkpt lat="42.0271536" lon="13.679529"><ele>794.0</ele><time>2026-04-19T13:45:45.599Z</time></trkpt><trkpt lat="42.0272068" lon="13.6794571"><ele>794.0</ele><time>2026-04-19T13:45:51.596Z</time></trkpt><trkpt lat="42.0272516" lon="13.6793973"><ele>794.0</ele><time>2026-04-19T13:45:58.594Z</time></trkpt><trkpt lat="42.0273094" lon="13.6793586"><ele>794.0</ele><time>2026-04-19T13:46:05.618Z</time></trkpt><trkpt lat="42.0273045" lon="13.6792736"><ele>796.0</ele><time>2026-04-19T13:46:13.594Z</time></trkpt><trkpt lat="42.0272899" lon="13.6791864"><ele>798.0</ele><time>2026-04-19T13:46:21.614Z</time></trkpt><trkpt lat="42.0272785" lon="13.6792711"><ele>800.0</ele><time>2026-04-19T13:47:16.596Z</time></trkpt><trkpt lat="42.0273319" lon="13.6792102"><ele>802.0</ele><time>2026-04-19T13:47:41.594Z</time></trkpt><trkpt lat="42.0273719" lon="13.6791268"><ele>804.0</ele><time>2026-04-19T13:47:55.599Z</time></trkpt><trkpt lat="42.0273764" lon="13.6790351"><ele>806.0</ele><time>2026-04-19T13:48:40.543Z</time></trkpt><trkpt lat="42.0273964" lon="13.6789089"><ele>808.0</ele><time>2026-04-19T13:49:08.632Z</time></trkpt><trkpt lat="42.0274224" lon="13.678823"><ele>808.0</ele><time>2026-04-19T13:49:14.596Z</time></trkpt><trkpt lat="42.027469" lon="13.6787551"><ele>808.0</ele><time>2026-04-19T13:49:23.598Z</time></trkpt><trkpt lat="42.0275211" lon="13.6787033"><ele>808.0</ele><time>2026-04-19T13:49:31.595Z</time></trkpt><trkpt lat="42.0275591" lon="13.6786357"><ele>808.0</ele><time>2026-04-19T13:49:48.639Z</time></trkpt><trkpt lat="42.0275926" lon="13.6785613"><ele>808.0</ele><time>2026-04-19T13:50:16.534Z</time></trkpt><trkpt lat="42.0276302" lon="13.6784926"><ele>808.0</ele><time>2026-04-19T13:50:23.646Z</time></trkpt><trkpt lat="42.0276921" lon="13.6784672"><ele>808.0</ele><time>2026-04-19T13:51:03.593Z</time></trkpt><trkpt lat="42.0277057" lon="13.6783841"><ele>803.4285714285714</ele><time>2026-04-19T13:51:11.584Z</time></trkpt><trkpt lat="42.0277331" lon="13.6782968"><ele>798.8571428571429</ele><time>2026-04-19T13:51:32.594Z</time></trkpt><trkpt lat="42.0277611" lon="13.678216"><ele>794.2857142857142</ele><time>2026-04-19T13:51:39.596Z</time></trkpt><trkpt lat="42.0278177" lon="13.6781659"><ele>789.7142857142858</ele><time>2026-04-19T13:51:49.595Z</time></trkpt><trkpt lat="42.0278745" lon="13.6782097"><ele>785.1428571428572</ele><time>2026-04-19T13:51:58.607Z</time></trkpt><trkpt lat="42.0278668" lon="13.6781251"><ele>780.5714285714286</ele><time>2026-04-19T13:55:37.596Z</time></trkpt><trkpt lat="42.0279255" lon="13.6780787"><ele>776.0</ele><time>2026-04-19T13:55:43.594Z</time></trkpt><trkpt lat="42.0279548" lon="13.6779911"><ele>776.0</ele><time>2026-04-19T13:55:50.594Z</time></trkpt><trkpt lat="42.0279858" lon="13.6779164"><ele>776.0</ele><time>2026-04-19T13:55:56.631Z</time></trkpt><trkpt lat="42.0280351" lon="13.6778486"><ele>776.0</ele><time>2026-04-19T13:56:04.595Z</time></trkpt><trkpt lat="42.0280477" lon="13.6777644"><ele>776.0</ele><time>2026-04-19T13:56:17.593Z</time></trkpt><trkpt lat="42.0280739" lon="13.6776779"><ele>776.0</ele><time>2026-04-19T13:56:22.595Z</time></trkpt><trkpt lat="42.028102" lon="13.6775928"><ele>776.0</ele><time>2026-04-19T13:56:28.622Z</time></trkpt><trkpt lat="42.0281257" lon="13.6775084"><ele>776.0</ele><time>2026-04-19T13:56:34.544Z</time></trkpt><trkpt lat="42.0281425" lon="13.6774154"><ele>777.0</ele><time>2026-04-19T13:56:41.599Z</time></trkpt><trkpt lat="42.0281614" lon="13.6773249"><ele>778.0</ele><time>2026-04-19T13:56:48.597Z</time></trkpt><trkpt lat="42.0281831" lon="13.6772428"><ele>779.0</ele><time>2026-04-19T13:56:55.56Z</time></trkpt><trkpt lat="42.028213" lon="13.6771622"><ele>780.0</ele><time>2026-04-19T13:57:02.625Z</time></trkpt><trkpt lat="42.0281983" lon="13.6770794"><ele>781.0</ele><time>2026-04-19T13:57:08.595Z</time></trkpt><trkpt lat="42.0281875" lon="13.6769807"><ele>782.0</ele><time>2026-04-19T13:57:15.649Z</time></trkpt><trkpt lat="42.0281803" lon="13.6768902"><ele>783.0</ele><time>2026-04-19T13:57:22.596Z</time></trkpt><trkpt lat="42.0281586" lon="13.6768043"><ele>785.4285714285714</ele><time>2026-04-19T13:57:29.596Z</time></trkpt><trkpt lat="42.0281192" lon="13.6767274"><ele>787.8571428571429</ele><time>2026-04-19T13:57:36.628Z</time></trkpt><trkpt lat="42.0281588" lon="13.676649"><ele>790.2857142857143</ele><time>2026-04-19T13:57:43.598Z</time></trkpt><trkpt lat="42.0282182" lon="13.6766108"><ele>792.7142857142858</ele><time>2026-04-19T13:57:49.582Z</time></trkpt><trkpt lat="42.0282621" lon="13.6765366"><ele>795.1428571428571</ele><time>2026-04-19T13:57:56.523Z</time></trkpt><trkpt lat="42.0282811" lon="13.6764485"><ele>797.5714285714287</ele><time>2026-04-19T13:58:02.594Z</time></trkpt><trkpt lat="42.0282938" lon="13.6763612"><ele>800.0</ele><time>2026-04-19T13:58:09.595Z</time></trkpt><trkpt lat="42.0282516" lon="13.6762944"><ele>800.0000000000001</ele><time>2026-04-19T13:58:16.562Z</time></trkpt><trkpt lat="42.0282722" lon="13.6762114"><ele>800.0</ele><time>2026-04-19T13:58:24.614Z</time></trkpt><trkpt lat="42.0283403" lon="13.6761945"><ele>800.0</ele><time>2026-04-19T13:58:32.602Z</time></trkpt><trkpt lat="42.0283875" lon="13.6761354"><ele>800.0</ele><time>2026-04-19T13:58:40.536Z</time></trkpt><trkpt lat="42.0284282" lon="13.6760685"><ele>800.0</ele><time>2026-04-19T13:58:46.595Z</time></trkpt><trkpt lat="42.0284476" lon="13.6759806"><ele>800.0000000000001</ele><time>2026-04-19T13:58:53.583Z</time></trkpt><trkpt lat="42.0284732" lon="13.6759022"><ele>800.0</ele><time>2026-04-19T13:59:00.564Z</time></trkpt><trkpt lat="42.0285085" lon="13.6758272"><ele>796.4285714285714</ele><time>2026-04-19T13:59:07.596Z</time></trkpt><trkpt lat="42.0285475" lon="13.6757407"><ele>792.8571428571429</ele><time>2026-04-19T13:59:14.518Z</time></trkpt><trkpt lat="42.0285855" lon="13.6756611"><ele>789.2857142857142</ele><time>2026-04-19T13:59:23.602Z</time></trkpt><trkpt lat="42.0285831" lon="13.6755744"><ele>785.7142857142858</ele><time>2026-04-19T13:59:31.615Z</time></trkpt><trkpt lat="42.0286452" lon="13.6755256"><ele>782.1428571428571</ele><time>2026-04-19T13:59:38.562Z</time></trkpt><trkpt lat="42.0286859" lon="13.6754524"><ele>778.5714285714286</ele><time>2026-04-19T13:59:45.598Z</time></trkpt><trkpt lat="42.0287409" lon="13.6753892"><ele>775.0</ele><time>2026-04-19T13:59:53.645Z</time></trkpt><trkpt lat="42.0287546" lon="13.6753016"><ele>776.8571428571428</ele><time>2026-04-19T14:00:00.603Z</time></trkpt><trkpt lat="42.028811" lon="13.6752515"><ele>778.7142857142857</ele><time>2026-04-19T14:00:16.619Z</time></trkpt><trkpt lat="42.0288716" lon="13.6752133"><ele>780.5714285714286</ele><time>2026-04-19T14:00:22.618Z</time></trkpt><trkpt lat="42.0288813" lon="13.6751226"><ele>782.4285714285713</ele><time>2026-04-19T14:00:29.595Z</time></trkpt><trkpt lat="42.0289214" lon="13.6750382"><ele>784.2857142857143</ele><time>2026-04-19T14:00:50.594Z</time></trkpt><trkpt lat="42.028939" lon="13.6749521"><ele>786.1428571428571</ele><time>2026-04-19T14:01:02.597Z</time></trkpt><trkpt lat="42.0289986" lon="13.6749229"><ele>788.0</ele><time>2026-04-19T14:02:36.593Z</time></trkpt><trkpt lat="42.0289403" lon="13.6748708"><ele>788.0</ele><time>2026-04-19T14:03:04.595Z</time></trkpt><trkpt lat="42.0288968" lon="13.6748077"><ele>788.0</ele><time>2026-04-19T14:03:22.594Z</time></trkpt><trkpt lat="42.0288654" lon="13.6747265"><ele>788.0</ele><time>2026-04-19T14:03:54.644Z</time></trkpt><trkpt lat="42.0288546" lon="13.6746411"><ele>788.0</ele><time>2026-04-19T14:04:13.515Z</time></trkpt><trkpt lat="42.0288265" lon="13.6745646"><ele>788.0</ele><time>2026-04-19T14:05:19.595Z</time></trkpt><trkpt lat="42.028837" lon="13.6744783"><ele>788.0</ele><time>2026-04-19T14:05:48.593Z</time></trkpt><trkpt lat="42.0288798" lon="13.6744048"><ele>788.0</ele><time>2026-04-19T14:06:02.594Z</time></trkpt><trkpt lat="42.0288777" lon="13.6743154"><ele>790.4285714285714</ele><time>2026-04-19T14:06:25.592Z</time></trkpt><trkpt lat="42.0288834" lon="13.6742296"><ele>792.8571428571429</ele><time>2026-04-19T14:08:05.596Z</time></trkpt><trkpt lat="42.028918" lon="13.6741571"><ele>795.2857142857142</ele><time>2026-04-19T14:08:21.641Z</time></trkpt><trkpt lat="42.0289466" lon="13.6740802"><ele>797.7142857142858</ele><time>2026-04-19T14:08:35.594Z</time></trkpt><trkpt lat="42.0289513" lon="13.673994"><ele>800.1428571428571</ele><time>2026-04-19T14:08:50.593Z</time></trkpt><trkpt lat="42.0289169" lon="13.6739197"><ele>802.5714285714286</ele><time>2026-04-19T14:08:59.613Z</time></trkpt><trkpt lat="42.0289248" lon="13.673809"><ele>805.0</ele><time>2026-04-19T14:10:18.595Z</time></trkpt><trkpt lat="42.0289476" lon="13.6737008"><ele>805.0</ele><time>2026-04-19T14:10:44.593Z</time></trkpt><trkpt lat="42.0289593" lon="13.673617"><ele>805.0</ele><time>2026-04-19T14:10:59.628Z</time></trkpt><trkpt lat="42.0289293" lon="13.6735339"><ele>805.0</ele><time>2026-04-19T14:11:08.597Z</time></trkpt><trkpt lat="42.028923" lon="13.6734428"><ele>805.0</ele><time>2026-04-19T14:11:24.509Z</time></trkpt><trkpt lat="42.0289651" lon="13.6733736"><ele>805.0</ele><time>2026-04-19T14:11:35.642Z</time></trkpt><trkpt lat="42.0289686" lon="13.6732728"><ele>805.0</ele><time>2026-04-19T14:11:47.613Z</time></trkpt><trkpt lat="42.0289706" lon="13.6731712"><ele>805.0</ele><time>2026-04-19T14:12:06.628Z</time></trkpt><trkpt lat="42.0289415" lon="13.6730897"><ele>807.0</ele><time>2026-04-19T14:12:38.617Z</time></trkpt><trkpt lat="42.0289521" lon="13.6730037"><ele>809.0</ele><time>2026-04-19T14:13:02.594Z</time></trkpt><trkpt lat="42.0289698" lon="13.6729134"><ele>811.0</ele><time>2026-04-19T14:13:21.593Z</time></trkpt><trkpt lat="42.0289298" lon="13.6728413"><ele>813.0</ele><time>2026-04-19T14:13:29.575Z</time></trkpt><trkpt lat="42.0289314" lon="13.6727507"><ele>815.0</ele><time>2026-04-19T14:13:43.604Z</time></trkpt><trkpt lat="42.0289227" lon="13.6726469"><ele>817.0</ele><time>2026-04-19T14:13:59.6Z</time></trkpt><trkpt lat="42.0288908" lon="13.672569"><ele>819.0</ele><time>2026-04-19T14:14:12.595Z</time></trkpt><trkpt lat="42.0288991" lon="13.6724804"><ele>820.0</ele><time>2026-04-19T14:14:24.593Z</time></trkpt><trkpt lat="42.0289002" lon="13.6723933"><ele>821.0</ele><time>2026-04-19T14:14:34.608Z</time></trkpt><trkpt lat="42.0289345" lon="13.6723135"><ele>822.0</ele><time>2026-04-19T14:14:53.621Z</time></trkpt><trkpt lat="42.0289419" lon="13.6722265"><ele>823.0</ele><time>2026-04-19T14:15:07.599Z</time></trkpt><trkpt lat="42.0289601" lon="13.6720812"><ele>824.0</ele><time>2026-04-19T14:15:30.641Z</time></trkpt><trkpt lat="42.0290151" lon="13.6719571"><ele>825.0</ele><time>2026-04-19T14:16:01.525Z</time></trkpt><trkpt lat="42.0290878" lon="13.6719082"><ele>827.0</ele><time>2026-04-19T14:19:26.592Z</time></trkpt><trkpt lat="42.02911" lon="13.6718057"><ele>829.0</ele><time>2026-04-19T14:20:42.591Z</time></trkpt><trkpt lat="42.0292019" lon="13.6717897"><ele>831.0</ele><time>2026-04-19T14:22:55.593Z</time></trkpt><trkpt lat="42.0293072" lon="13.671785"><ele>833.0</ele><time>2026-04-19T14:23:31.592Z</time></trkpt><trkpt lat="42.0293714" lon="13.671779"><ele>835.0</ele><time>2026-04-19T14:23:47.595Z</time></trkpt><trkpt lat="42.0294596" lon="13.6717348"><ele>837.0</ele><time>2026-04-19T14:24:18.594Z</time></trkpt><trkpt lat="42.0295247" lon="13.6717189"><ele>830.1428571428571</ele><time>2026-04-19T14:24:29.591Z</time></trkpt><trkpt lat="42.0295914" lon="13.6716862"><ele>823.2857142857143</ele><time>2026-04-19T14:24:40.592Z</time></trkpt><trkpt lat="42.0296227" lon="13.6716068"><ele>816.4285714285713</ele><time>2026-04-19T14:24:56.593Z</time></trkpt><trkpt lat="42.0296766" lon="13.6715427"><ele>809.5714285714286</ele><time>2026-04-19T14:25:58.592Z</time></trkpt><trkpt lat="42.029734" lon="13.6715029"><ele>802.7142857142857</ele><time>2026-04-19T14:26:12.593Z</time></trkpt><trkpt lat="42.029786" lon="13.6714514"><ele>795.8571428571428</ele><time>2026-04-19T14:26:28.594Z</time></trkpt><trkpt lat="42.029883" lon="13.6714324"><ele>789.0</ele><time>2026-04-19T14:27:18.592Z</time></trkpt><trkpt lat="42.0299468" lon="13.6714069"><ele>784.2857142857142</ele><time>2026-04-19T14:28:02.617Z</time></trkpt><trkpt lat="42.030009" lon="13.6713119"><ele>779.5714285714286</ele><time>2026-04-19T14:28:26.594Z</time></trkpt><trkpt lat="42.0300606" lon="13.6712318"><ele>774.8571428571429</ele><time>2026-04-19T14:29:36.592Z</time></trkpt><trkpt lat="42.0301269" lon="13.6712285"><ele>770.1428571428571</ele><time>2026-04-19T14:29:56.596Z</time></trkpt><trkpt lat="42.0300891" lon="13.6711599"><ele>765.4285714285714</ele><time>2026-04-19T14:32:36.592Z</time></trkpt><trkpt lat="42.0300535" lon="13.6710728"><ele>760.7142857142857</ele><time>2026-04-19T14:32:43.596Z</time></trkpt><trkpt lat="42.0300603" lon="13.6709783"><ele>756.0</ele><time>2026-04-19T14:32:50.596Z</time></trkpt><trkpt lat="42.0301289" lon="13.6709473"><ele>756.0</ele><time>2026-04-19T14:32:56.595Z</time></trkpt><trkpt lat="42.0300695" lon="13.6709855"><ele>756.0</ele><time>2026-04-19T14:34:52.581Z</time></trkpt><trkpt lat="42.0300258" lon="13.6710479"><ele>756.0</ele><time>2026-04-19T14:34:57.596Z</time></trkpt><trkpt lat="42.0300531" lon="13.6711293"><ele>756.0</ele><time>2026-04-19T14:35:00.615Z</time></trkpt><trkpt lat="42.030082" lon="13.6710484"><ele>756.0</ele><time>2026-04-19T14:37:03.595Z</time></trkpt><trkpt lat="42.0301486" lon="13.6710068"><ele>756.0</ele><time>2026-04-19T14:37:11.515Z</time></trkpt><trkpt lat="42.0301585" lon="13.6709061"><ele>756.0</ele><time>2026-04-19T14:37:26.579Z</time></trkpt><trkpt lat="42.0301436" lon="13.6708151"><ele>756.0</ele><time>2026-04-19T14:37:30.591Z</time></trkpt><trkpt lat="42.0301057" lon="13.6707353"><ele>756.0</ele><time>2026-04-19T14:37:34.592Z</time></trkpt><trkpt lat="42.0301326" lon="13.6706512"><ele>756.0</ele><time>2026-04-19T14:37:41.604Z</time></trkpt><trkpt lat="42.0301816" lon="13.6707199"><ele>756.0</ele><time>2026-04-19T14:37:48.591Z</time></trkpt><trkpt lat="42.0301022" lon="13.6707643"><ele>756.0</ele><time>2026-04-19T14:39:42.682Z</time></trkpt><trkpt lat="42.0301166" lon="13.6706686"><ele>756.0</ele><time>2026-04-19T14:40:03.598Z</time></trkpt><trkpt lat="42.0300931" lon="13.6705856"><ele>756.0</ele><time>2026-04-19T14:40:15.594Z</time></trkpt><trkpt lat="42.0300912" lon="13.6704882"><ele>756.0</ele><time>2026-04-19T14:40:23.636Z</time></trkpt><trkpt lat="42.0300655" lon="13.6704096"><ele>756.0</ele><time>2026-04-19T14:40:29.659Z</time></trkpt><trkpt lat="42.0300724" lon="13.6703099"><ele>756.0</ele><time>2026-04-19T14:40:36.616Z</time></trkpt><trkpt lat="42.0300683" lon="13.6702123"><ele>756.0</ele><time>2026-04-19T14:40:42.657Z</time></trkpt><trkpt lat="42.0300505" lon="13.6701185"><ele>756.0</ele><time>2026-04-19T14:40:49.594Z</time></trkpt><trkpt lat="42.0300389" lon="13.670025"><ele>756.0</ele><time>2026-04-19T14:40:56.594Z</time></trkpt><trkpt lat="42.0300272" lon="13.6699388"><ele>756.0</ele><time>2026-04-19T14:41:02.594Z</time></trkpt><trkpt lat="42.0300104" lon="13.6698566"><ele>756.2857142857143</ele><time>2026-04-19T14:41:08.611Z</time></trkpt><trkpt lat="42.0299975" lon="13.6697725"><ele>756.5714285714286</ele><time>2026-04-19T14:41:14.648Z</time></trkpt><trkpt lat="42.0299884" lon="13.6696754"><ele>756.8571428571429</ele><time>2026-04-19T14:41:21.598Z</time></trkpt><trkpt lat="42.0299816" lon="13.6695796"><ele>757.1428571428571</ele><time>2026-04-19T14:41:28.592Z</time></trkpt><trkpt lat="42.0299715" lon="13.6694807"><ele>757.4285714285714</ele><time>2026-04-19T14:41:35.595Z</time></trkpt><trkpt lat="42.0299618" lon="13.6693821"><ele>757.7142857142858</ele><time>2026-04-19T14:41:42.574Z</time></trkpt><trkpt lat="42.0299351" lon="13.6693043"><ele>758.0</ele><time>2026-04-19T14:41:48.589Z</time></trkpt><trkpt lat="42.0299084" lon="13.6692138"><ele>759.7142857142858</ele><time>2026-04-19T14:41:55.599Z</time></trkpt><trkpt lat="42.0299119" lon="13.6691257"><ele>761.4285714285714</ele><time>2026-04-19T14:42:01.592Z</time></trkpt><trkpt lat="42.0298914" lon="13.6690316"><ele>763.1428571428571</ele><time>2026-04-19T14:42:10.59Z</time></trkpt><trkpt lat="42.0298729" lon="13.6689337"><ele>764.8571428571429</ele><time>2026-04-19T14:42:17.59Z</time></trkpt><trkpt lat="42.0298864" lon="13.6688445"><ele>766.5714285714286</ele><time>2026-04-19T14:42:24.56Z</time></trkpt><trkpt lat="42.0298571" lon="13.668754"><ele>768.2857142857143</ele><time>2026-04-19T14:42:48.622Z</time></trkpt><trkpt lat="42.029835" lon="13.66866"><ele>770.0</ele><time>2026-04-19T14:42:54.593Z</time></trkpt><trkpt lat="42.029798" lon="13.668584"><ele>770.0</ele><time>2026-04-19T14:43:00.579Z</time></trkpt><trkpt lat="42.0297547" lon="13.6685107"><ele>770.0</ele><time>2026-04-19T14:43:06.631Z</time></trkpt><trkpt lat="42.0297085" lon="13.6684388"><ele>770.0</ele><time>2026-04-19T14:43:13.59Z</time></trkpt><trkpt lat="42.0296607" lon="13.6683682"><ele>770.0</ele><time>2026-04-19T14:43:20.617Z</time></trkpt><trkpt lat="42.0296037" lon="13.668309"><ele>770.0</ele><time>2026-04-19T14:43:27.592Z</time></trkpt><trkpt lat="42.0295491" lon="13.6682536"><ele>770.0</ele><time>2026-04-19T14:43:34.577Z</time></trkpt><trkpt lat="42.0295105" lon="13.6681862"><ele>770.0</ele><time>2026-04-19T14:43:40.591Z</time></trkpt><trkpt lat="42.0294764" lon="13.66811"><ele>770.0</ele><time>2026-04-19T14:43:48.593Z</time></trkpt><trkpt lat="42.0294586" lon="13.6680207"><ele>770.0</ele><time>2026-04-19T14:43:54.64Z</time></trkpt><trkpt lat="42.0294182" lon="13.6679552"><ele>770.0</ele><time>2026-04-19T14:44:01.592Z</time></trkpt><trkpt lat="42.0293689" lon="13.6678963"><ele>770.0</ele><time>2026-04-19T14:44:07.603Z</time></trkpt><trkpt lat="42.0293378" lon="13.6678151"><ele>770.0</ele><time>2026-04-19T14:44:13.595Z</time></trkpt><trkpt lat="42.0293224" lon="13.6677208"><ele>770.0</ele><time>2026-04-19T14:44:20.591Z</time></trkpt><trkpt lat="42.0293011" lon="13.6676254"><ele>770.0</ele><time>2026-04-19T14:44:27.626Z</time></trkpt><trkpt lat="42.0292762" lon="13.6675447"><ele>763.5</ele><time>2026-04-19T14:44:35.591Z</time></trkpt><trkpt lat="42.0292475" lon="13.6674629"><ele>757.0</ele><time>2026-04-19T14:44:42.617Z</time></trkpt><trkpt lat="42.0294141" lon="13.6659027"><ele>756.875</ele><time>2026-04-19T14:49:27.609Z</time></trkpt><trkpt lat="42.029426" lon="13.665991"><ele>756.75</ele><time>2026-04-19T14:49:33.592Z</time></trkpt><trkpt lat="42.029408" lon="13.6659688"><ele>756.625</ele><time>2026-04-19T14:49:54.59Z</time></trkpt><trkpt lat="42.0293851" lon="13.6658865"><ele>756.5</ele><time>2026-04-19T14:50:00.616Z</time></trkpt><trkpt lat="42.0293482" lon="13.6658061"><ele>756.375</ele><time>2026-04-19T14:50:08.592Z</time></trkpt><trkpt lat="42.0293543" lon="13.6657135"><ele>756.25</ele><time>2026-04-19T14:50:14.604Z</time></trkpt><trkpt lat="42.0293812" lon="13.6656222"><ele>756.125</ele><time>2026-04-19T14:50:21.562Z</time></trkpt><trkpt lat="42.0293595" lon="13.6655426"><ele>756.0</ele><time>2026-04-19T14:50:25.591Z</time></trkpt><trkpt lat="42.0293415" lon="13.6654489"><ele>756.0</ele><time>2026-04-19T14:50:39.668Z</time></trkpt><trkpt lat="42.0293204" lon="13.6653623"><ele>756.0</ele><time>2026-04-19T14:50:45.625Z</time></trkpt><trkpt lat="42.0293435" lon="13.6652738"><ele>756.0</ele><time>2026-04-19T14:50:58.593Z</time></trkpt><trkpt lat="42.0293116" lon="13.665192"><ele>756.0</ele><time>2026-04-19T14:51:03.61Z</time></trkpt><trkpt lat="42.0292866" lon="13.6651136"><ele>756.0</ele><time>2026-04-19T14:51:09.592Z</time></trkpt><trkpt lat="42.0292493" lon="13.6650335"><ele>756.0</ele><time>2026-04-19T14:51:15.593Z</time></trkpt><trkpt lat="42.0292119" lon="13.664954"><ele>756.0</ele><time>2026-04-19T14:51:21.622Z</time></trkpt><trkpt lat="42.0291475" lon="13.6649421"><ele>755.7142857142857</ele><time>2026-04-19T14:51:32.564Z</time></trkpt><trkpt lat="42.0290808" lon="13.6649329"><ele>755.4285714285714</ele><time>2026-04-19T14:51:36.615Z</time></trkpt><trkpt lat="42.0290512" lon="13.664858"><ele>755.1428571428571</ele><time>2026-04-19T14:51:41.59Z</time></trkpt><trkpt lat="42.0290525" lon="13.6647718"><ele>754.8571428571429</ele><time>2026-04-19T14:52:00.589Z</time></trkpt><trkpt lat="42.0289786" lon="13.6647599"><ele>754.5714285714286</ele><time>2026-04-19T14:53:49.546Z</time></trkpt><trkpt lat="42.0289133" lon="13.6647639"><ele>754.2857142857142</ele><time>2026-04-19T14:53:54.591Z</time></trkpt><trkpt lat="42.0288493" lon="13.6647238"><ele>754.0</ele><time>2026-04-19T14:54:00.523Z</time></trkpt><trkpt lat="42.0287887" lon="13.6646861"><ele>753.9999999999999</ele><time>2026-04-19T14:54:08.593Z</time></trkpt><trkpt lat="42.0287253" lon="13.6646609"><ele>754.0</ele><time>2026-04-19T14:54:15.508Z</time></trkpt><trkpt lat="42.0286567" lon="13.664631"><ele>754.0</ele><time>2026-04-19T14:54:22.522Z</time></trkpt><trkpt lat="42.0285837" lon="13.6646222"><ele>754.0</ele><time>2026-04-19T14:54:29.663Z</time></trkpt><trkpt lat="42.0285325" lon="13.6645711"><ele>754.0</ele><time>2026-04-19T14:54:35.562Z</time></trkpt><trkpt lat="42.0284703" lon="13.6645261"><ele>753.9999999999999</ele><time>2026-04-19T14:54:45.524Z</time></trkpt><trkpt lat="42.0284066" lon="13.6645318"><ele>754.0</ele><time>2026-04-19T14:54:50.621Z</time></trkpt><trkpt lat="42.0283381" lon="13.6645505"><ele>753.5714285714286</ele><time>2026-04-19T14:54:56.59Z</time></trkpt><trkpt lat="42.0282735" lon="13.6645199"><ele>753.1428571428571</ele><time>2026-04-19T14:55:03.607Z</time></trkpt><trkpt lat="42.0282117" lon="13.6644961"><ele>752.7142857142858</ele><time>2026-04-19T14:55:09.59Z</time></trkpt><trkpt lat="42.0281839" lon="13.664414"><ele>752.2857142857142</ele><time>2026-04-19T14:55:25.563Z</time></trkpt><trkpt lat="42.0281263" lon="13.6643578"><ele>751.8571428571429</ele><time>2026-04-19T14:55:30.59Z</time></trkpt><trkpt lat="42.0280842" lon="13.6642866"><ele>751.4285714285714</ele><time>2026-04-19T14:55:36.608Z</time></trkpt><trkpt lat="42.0280249" lon="13.6642261"><ele>751.0</ele><time>2026-04-19T14:55:57.564Z</time></trkpt><trkpt lat="42.0279808" lon="13.6641541"><ele>751.0000000000001</ele><time>2026-04-19T14:56:04.592Z</time></trkpt><trkpt lat="42.0279723" lon="13.6640558"><ele>751.0</ele><time>2026-04-19T14:56:16.633Z</time></trkpt><trkpt lat="42.0279593" lon="13.6639614"><ele>751.0</ele><time>2026-04-19T14:56:23.602Z</time></trkpt><trkpt lat="42.0279509" lon="13.6638612"><ele>751.0</ele><time>2026-04-19T14:56:29.638Z</time></trkpt><trkpt lat="42.027916" lon="13.6637761"><ele>751.0</ele><time>2026-04-19T14:56:34.595Z</time></trkpt><trkpt lat="42.0278541" lon="13.6637113"><ele>751.0000000000001</ele><time>2026-04-19T14:56:39.6Z</time></trkpt><trkpt lat="42.0278033" lon="13.6636484"><ele>751.0</ele><time>2026-04-19T14:56:45.501Z</time></trkpt><trkpt lat="42.0277694" lon="13.6635748"><ele>752.0000000000001</ele><time>2026-04-19T14:56:51.588Z</time></trkpt><trkpt lat="42.0277195" lon="13.6635036"><ele>753.0</ele><time>2026-04-19T14:56:57.611Z</time></trkpt><trkpt lat="42.0276698" lon="13.6634418"><ele>754.0</ele><time>2026-04-19T14:57:10.586Z</time></trkpt><trkpt lat="42.0276109" lon="13.6634008"><ele>755.0</ele><time>2026-04-19T14:57:17.588Z</time></trkpt><trkpt lat="42.0275435" lon="13.6634289"><ele>756.0</ele><time>2026-04-19T14:57:27.596Z</time></trkpt><trkpt lat="42.0274699" lon="13.6634156"><ele>757.0000000000001</ele><time>2026-04-19T14:57:35.589Z</time></trkpt><trkpt lat="42.0274148" lon="13.6633643"><ele>758.0</ele><time>2026-04-19T14:57:40.594Z</time></trkpt><trkpt lat="42.027368" lon="13.6632945"><ele>758.0</ele><time>2026-04-19T14:57:45.603Z</time></trkpt><trkpt lat="42.0273374" lon="13.6632035"><ele>758.0</ele><time>2026-04-19T14:57:51.6Z</time></trkpt><trkpt lat="42.027325" lon="13.6631176"><ele>758.0</ele><time>2026-04-19T14:57:56.581Z</time></trkpt><trkpt lat="42.0272603" lon="13.6630804"><ele>758.0</ele><time>2026-04-19T14:58:03.618Z</time></trkpt></trkseg></trk></gpx>